<?xml version="1.0" encoding="UTF-8" standalone="no" ?>
<gpx xmlns="http://www.topografix.com/GPX/1/1" xmlns:xsi="http://www.w3.org/2001/XMLSchema-instance" xsi:schemaLocation="http://www.topografix.com/GPX/1/1 http://www.topografix.com/GPX/1/1/gpx.xsd" version="1.1" creator="VisuGPX - https://www.visugpx.com">
  <metadata>
    <name>Parcours 42 bleu  Tour du Puy De Niermont</name>
    <desc><![CDATA[Départ du Col de Serre]]></desc>
  </metadata>
  <trk>
    <name><![CDATA[Parcours 42 bleu  Tour du Puy De Niermont - Puy Mary Espace Trail]]></name>
    <trkseg>
      <trkpt lat="45.13048" lon="2.70239">
        <ele>1331</ele>
        <time>2000-01-01T00:51:23.000Z</time>
      </trkpt>
      <trkpt lat="45.13048" lon="2.70239">
        <ele>1331.6</ele>
        <time>2000-01-01T00:51:33.000Z</time>
      </trkpt>
      <trkpt lat="45.13047" lon="2.70252">
        <ele>1331.3</ele>
        <time>2000-01-01T00:51:43.000Z</time>
      </trkpt>
      <trkpt lat="45.13046" lon="2.70268">
        <ele>1329</ele>
        <time>2000-01-01T00:51:53.000Z</time>
      </trkpt>
      <trkpt lat="45.13047" lon="2.70252">
        <ele>1331.3</ele>
        <time>2000-01-01T00:52:03.000Z</time>
      </trkpt>
      <trkpt lat="45.13046" lon="2.70268">
        <ele>1329</ele>
        <time>2000-01-01T00:52:13.000Z</time>
      </trkpt>
      <trkpt lat="45.13037" lon="2.70303">
        <ele>1325</ele>
        <time>2000-01-01T00:52:23.000Z</time>
      </trkpt>
      <trkpt lat="45.1304" lon="2.7034">
        <ele>1320</ele>
        <time>2000-01-01T00:52:33.000Z</time>
      </trkpt>
      <trkpt lat="45.1304" lon="2.7034">
        <ele>1328.8</ele>
        <time>2000-01-01T00:52:43.000Z</time>
      </trkpt>
      <trkpt lat="45.1306" lon="2.70368">
        <ele>1319</ele>
        <time>2000-01-01T00:52:53.000Z</time>
      </trkpt>
      <trkpt lat="45.13085" lon="2.70402">
        <ele>1319</ele>
        <time>2000-01-01T00:53:03.000Z</time>
      </trkpt>
      <trkpt lat="45.13103" lon="2.70432">
        <ele>1319</ele>
        <time>2000-01-01T00:53:13.000Z</time>
      </trkpt>
      <trkpt lat="45.13103" lon="2.70432">
        <ele>1322.1</ele>
        <time>2000-01-01T00:53:23.000Z</time>
      </trkpt>
      <trkpt lat="45.13112" lon="2.70462">
        <ele>1318</ele>
        <time>2000-01-01T00:53:33.000Z</time>
      </trkpt>
      <trkpt lat="45.13112" lon="2.70462">
        <ele>1319.6</ele>
        <time>2000-01-01T00:53:43.000Z</time>
      </trkpt>
      <trkpt lat="45.1312" lon="2.70496">
        <ele>1316</ele>
        <time>2000-01-01T00:53:53.000Z</time>
      </trkpt>
      <trkpt lat="45.13131" lon="2.70536">
        <ele>1313</ele>
        <time>2000-01-01T00:54:03.000Z</time>
      </trkpt>
      <trkpt lat="45.13131" lon="2.70536">
        <ele>1315.5</ele>
        <time>2000-01-01T00:54:13.000Z</time>
      </trkpt>
      <trkpt lat="45.13144" lon="2.70586">
        <ele>1311</ele>
        <time>2000-01-01T00:54:23.000Z</time>
      </trkpt>
      <trkpt lat="45.13155" lon="2.70631">
        <ele>1310</ele>
        <time>2000-01-01T00:54:33.000Z</time>
      </trkpt>
      <trkpt lat="45.13155" lon="2.70631">
        <ele>1307.2</ele>
        <time>2000-01-01T00:54:43.000Z</time>
      </trkpt>
      <trkpt lat="45.13174" lon="2.70681">
        <ele>1310</ele>
        <time>2000-01-01T00:54:53.000Z</time>
      </trkpt>
      <trkpt lat="45.13187" lon="2.70733">
        <ele>1306</ele>
        <time>2000-01-01T00:55:03.000Z</time>
      </trkpt>
      <trkpt lat="45.13187" lon="2.70733">
        <ele>1305.8</ele>
        <time>2000-01-01T00:55:13.000Z</time>
      </trkpt>
      <trkpt lat="45.132" lon="2.7078">
        <ele>1304</ele>
        <time>2000-01-01T00:55:23.000Z</time>
      </trkpt>
      <trkpt lat="45.13211" lon="2.7083">
        <ele>1303</ele>
        <time>2000-01-01T00:55:33.000Z</time>
      </trkpt>
      <trkpt lat="45.13211" lon="2.7083">
        <ele>1302.6</ele>
        <time>2000-01-01T00:55:43.000Z</time>
      </trkpt>
      <trkpt lat="45.13221" lon="2.7088">
        <ele>1301</ele>
        <time>2000-01-01T00:55:53.000Z</time>
      </trkpt>
      <trkpt lat="45.13221" lon="2.7088">
        <ele>1300.5</ele>
        <time>2000-01-01T00:56:03.000Z</time>
      </trkpt>
      <trkpt lat="45.13227" lon="2.70942">
        <ele>1298</ele>
        <time>2000-01-01T00:56:13.000Z</time>
      </trkpt>
      <trkpt lat="45.13233" lon="2.70977">
        <ele>1296</ele>
        <time>2000-01-01T00:56:23.000Z</time>
      </trkpt>
      <trkpt lat="45.13233" lon="2.70977">
        <ele>1296.7</ele>
        <time>2000-01-01T00:56:33.000Z</time>
      </trkpt>
      <trkpt lat="45.13238" lon="2.71006">
        <ele>1296</ele>
        <time>2000-01-01T00:56:43.000Z</time>
      </trkpt>
      <trkpt lat="45.13244" lon="2.71055">
        <ele>1296</ele>
        <time>2000-01-01T00:56:53.000Z</time>
      </trkpt>
      <trkpt lat="45.13244" lon="2.71055">
        <ele>1293.1</ele>
        <time>2000-01-01T00:57:03.000Z</time>
      </trkpt>
      <trkpt lat="45.13243" lon="2.71109">
        <ele>1292</ele>
        <time>2000-01-01T00:57:13.000Z</time>
      </trkpt>
      <trkpt lat="45.13242" lon="2.71153">
        <ele>1290</ele>
        <time>2000-01-01T00:57:23.000Z</time>
      </trkpt>
      <trkpt lat="45.13236" lon="2.71162">
        <ele>1285.1</ele>
        <time>2000-01-01T00:57:33.000Z</time>
      </trkpt>
      <trkpt lat="45.13227" lon="2.71134">
        <ele>1289</ele>
        <time>2000-01-01T00:57:43.000Z</time>
      </trkpt>
      <trkpt lat="45.13236" lon="2.71162">
        <ele>1288</ele>
        <time>2000-01-01T00:57:53.000Z</time>
      </trkpt>
      <trkpt lat="45.13227" lon="2.71134">
        <ele>1287</ele>
        <time>2000-01-01T00:58:03.000Z</time>
      </trkpt>
      <trkpt lat="45.13216" lon="2.71097">
        <ele>1284</ele>
        <time>2000-01-01T00:58:13.000Z</time>
      </trkpt>
      <trkpt lat="45.13216" lon="2.71097">
        <ele>1280</ele>
        <time>2000-01-01T00:58:23.000Z</time>
      </trkpt>
      <trkpt lat="45.13198" lon="2.71072">
        <ele>1279</ele>
        <time>2000-01-01T00:58:33.000Z</time>
      </trkpt>
      <trkpt lat="45.13182" lon="2.7105">
        <ele>1273</ele>
        <time>2000-01-01T00:58:43.000Z</time>
      </trkpt>
      <trkpt lat="45.13159" lon="2.71007">
        <ele>1268</ele>
        <time>2000-01-01T00:58:53.000Z</time>
      </trkpt>
      <trkpt lat="45.13148" lon="2.70976">
        <ele>1267</ele>
        <time>2000-01-01T00:59:03.000Z</time>
      </trkpt>
      <trkpt lat="45.13148" lon="2.70976">
        <ele>1264.8</ele>
        <time>2000-01-01T00:59:13.000Z</time>
      </trkpt>
      <trkpt lat="45.1313" lon="2.7096">
        <ele>1263</ele>
        <time>2000-01-01T00:59:23.000Z</time>
      </trkpt>
      <trkpt lat="45.13112" lon="2.7094">
        <ele>1260</ele>
        <time>2000-01-01T00:59:33.000Z</time>
      </trkpt>
      <trkpt lat="45.13112" lon="2.7094">
        <ele>1256.7</ele>
        <time>2000-01-01T00:59:43.000Z</time>
      </trkpt>
      <trkpt lat="45.13092" lon="2.7092">
        <ele>1254</ele>
        <time>2000-01-01T00:59:53.000Z</time>
      </trkpt>
      <trkpt lat="45.13092" lon="2.7092">
        <ele>1253.9</ele>
        <time>2000-01-01T01:00:03.000Z</time>
      </trkpt>
      <trkpt lat="45.13075" lon="2.70896">
        <ele>1251</ele>
        <time>2000-01-01T01:00:13.000Z</time>
      </trkpt>
      <trkpt lat="45.13056" lon="2.70878">
        <ele>1247</ele>
        <time>2000-01-01T01:00:23.000Z</time>
      </trkpt>
      <trkpt lat="45.1304" lon="2.70864">
        <ele>1243.2</ele>
        <time>2000-01-01T01:00:33.000Z</time>
      </trkpt>
      <trkpt lat="45.1304" lon="2.70864">
        <ele>1243.2</ele>
        <time>2000-01-01T01:00:43.000Z</time>
      </trkpt>
      <trkpt lat="45.1303" lon="2.70874">
        <ele>1240</ele>
        <time>2000-01-01T01:00:53.000Z</time>
      </trkpt>
      <trkpt lat="45.13023" lon="2.70913">
        <ele>1234</ele>
        <time>2000-01-01T01:01:03.000Z</time>
      </trkpt>
      <trkpt lat="45.13023" lon="2.70913">
        <ele>1233.3</ele>
        <time>2000-01-01T01:01:13.000Z</time>
      </trkpt>
      <trkpt lat="45.13012" lon="2.70952">
        <ele>1229</ele>
        <time>2000-01-01T01:01:23.000Z</time>
      </trkpt>
      <trkpt lat="45.13003" lon="2.7099">
        <ele>1222</ele>
        <time>2000-01-01T01:01:33.000Z</time>
      </trkpt>
      <trkpt lat="45.13003" lon="2.7099">
        <ele>1222.5</ele>
        <time>2000-01-01T01:01:43.000Z</time>
      </trkpt>
      <trkpt lat="45.12997" lon="2.71033">
        <ele>1219</ele>
        <time>2000-01-01T01:01:53.000Z</time>
      </trkpt>
      <trkpt lat="45.12997" lon="2.71033">
        <ele>1217.8</ele>
        <time>2000-01-01T01:02:03.000Z</time>
      </trkpt>
      <trkpt lat="45.1299" lon="2.71076">
        <ele>1215</ele>
        <time>2000-01-01T01:02:13.000Z</time>
      </trkpt>
      <trkpt lat="45.1299" lon="2.71076">
        <ele>1213.2</ele>
        <time>2000-01-01T01:02:23.000Z</time>
      </trkpt>
      <trkpt lat="45.12994" lon="2.71116">
        <ele>1213</ele>
        <time>2000-01-01T01:02:33.000Z</time>
      </trkpt>
      <trkpt lat="45.12988" lon="2.71141">
        <ele>1211</ele>
        <time>2000-01-01T01:02:43.000Z</time>
      </trkpt>
      <trkpt lat="45.12988" lon="2.71141">
        <ele>1210.3</ele>
        <time>2000-01-01T01:02:53.000Z</time>
      </trkpt>
      <trkpt lat="45.1297" lon="2.71187">
        <ele>1204</ele>
        <time>2000-01-01T01:03:03.000Z</time>
      </trkpt>
      <trkpt lat="45.12962" lon="2.71225">
        <ele>1198</ele>
        <time>2000-01-01T01:03:13.000Z</time>
      </trkpt>
      <trkpt lat="45.12962" lon="2.71225">
        <ele>1199.3</ele>
        <time>2000-01-01T01:03:23.000Z</time>
      </trkpt>
      <trkpt lat="45.12955" lon="2.71261">
        <ele>1193</ele>
        <time>2000-01-01T01:03:33.000Z</time>
      </trkpt>
      <trkpt lat="45.1296" lon="2.71302">
        <ele>1191</ele>
        <time>2000-01-01T01:03:43.000Z</time>
      </trkpt>
      <trkpt lat="45.1296" lon="2.71302">
        <ele>1194.8</ele>
        <time>2000-01-01T01:03:53.000Z</time>
      </trkpt>
      <trkpt lat="45.12973" lon="2.71359">
        <ele>1191</ele>
        <time>2000-01-01T01:04:03.000Z</time>
      </trkpt>
      <trkpt lat="45.12987" lon="2.71392">
        <ele>1191</ele>
        <time>2000-01-01T01:04:13.000Z</time>
      </trkpt>
      <trkpt lat="45.12987" lon="2.71392">
        <ele>1192.4</ele>
        <time>2000-01-01T01:04:23.000Z</time>
      </trkpt>
      <trkpt lat="45.12996" lon="2.71423">
        <ele>1191</ele>
        <time>2000-01-01T01:04:33.000Z</time>
      </trkpt>
      <trkpt lat="45.13" lon="2.71477">
        <ele>1190</ele>
        <time>2000-01-01T01:04:43.000Z</time>
      </trkpt>
      <trkpt lat="45.13" lon="2.71477">
        <ele>1190.8</ele>
        <time>2000-01-01T01:04:53.000Z</time>
      </trkpt>
      <trkpt lat="45.13009" lon="2.71531">
        <ele>1187</ele>
        <time>2000-01-01T01:05:03.000Z</time>
      </trkpt>
      <trkpt lat="45.13026" lon="2.71579">
        <ele>1186</ele>
        <time>2000-01-01T01:05:13.000Z</time>
      </trkpt>
      <trkpt lat="45.13026" lon="2.71579">
        <ele>1186.8</ele>
        <time>2000-01-01T01:05:23.000Z</time>
      </trkpt>
      <trkpt lat="45.1304" lon="2.7161">
        <ele>1186</ele>
        <time>2000-01-01T01:05:33.000Z</time>
      </trkpt>
      <trkpt lat="45.13048" lon="2.71638">
        <ele>1186</ele>
        <time>2000-01-01T01:05:43.000Z</time>
      </trkpt>
      <trkpt lat="45.13048" lon="2.71638">
        <ele>1186.3</ele>
        <time>2000-01-01T01:05:53.000Z</time>
      </trkpt>
      <trkpt lat="45.13061" lon="2.7166">
        <ele>1186</ele>
        <time>2000-01-01T01:06:03.000Z</time>
      </trkpt>
      <trkpt lat="45.13081" lon="2.71701">
        <ele>1187</ele>
        <time>2000-01-01T01:06:13.000Z</time>
      </trkpt>
      <trkpt lat="45.13081" lon="2.71701">
        <ele>1186</ele>
        <time>2000-01-01T01:06:23.000Z</time>
      </trkpt>
      <trkpt lat="45.13093" lon="2.7173">
        <ele>1188</ele>
        <time>2000-01-01T01:06:33.000Z</time>
      </trkpt>
      <trkpt lat="45.13118" lon="2.71784">
        <ele>1188</ele>
        <time>2000-01-01T01:06:43.000Z</time>
      </trkpt>
      <trkpt lat="45.13137" lon="2.71816">
        <ele>1185</ele>
        <time>2000-01-01T01:06:53.000Z</time>
      </trkpt>
      <trkpt lat="45.13137" lon="2.71816">
        <ele>1184.5</ele>
        <time>2000-01-01T01:07:03.000Z</time>
      </trkpt>
      <trkpt lat="45.13159" lon="2.71859">
        <ele>1185</ele>
        <time>2000-01-01T01:07:13.000Z</time>
      </trkpt>
      <trkpt lat="45.13179" lon="2.71917">
        <ele>1185</ele>
        <time>2000-01-01T01:07:23.000Z</time>
      </trkpt>
      <trkpt lat="45.13197" lon="2.71973">
        <ele>1183</ele>
        <time>2000-01-01T01:07:33.000Z</time>
      </trkpt>
      <trkpt lat="45.13209" lon="2.7202">
        <ele>1183</ele>
        <time>2000-01-01T01:07:43.000Z</time>
      </trkpt>
      <trkpt lat="45.13206" lon="2.72048">
        <ele>1180</ele>
        <time>2000-01-01T01:07:53.000Z</time>
      </trkpt>
      <trkpt lat="45.13206" lon="2.72048">
        <ele>1179</ele>
        <time>2000-01-01T01:08:03.000Z</time>
      </trkpt>
      <trkpt lat="45.13208" lon="2.72079">
        <ele>1176</ele>
        <time>2000-01-01T01:08:13.000Z</time>
      </trkpt>
      <trkpt lat="45.13211" lon="2.72099">
        <ele>1174.8</ele>
        <time>2000-01-01T01:08:23.000Z</time>
      </trkpt>
      <trkpt lat="45.13211" lon="2.72099">
        <ele>1174.8</ele>
        <time>2000-01-01T01:08:33.000Z</time>
      </trkpt>
      <trkpt lat="45.13216" lon="2.72125">
        <ele>1172</ele>
        <time>2000-01-01T01:08:43.000Z</time>
      </trkpt>
      <trkpt lat="45.13214" lon="2.72139">
        <ele>1173.6</ele>
        <time>2000-01-01T01:08:53.000Z</time>
      </trkpt>
      <trkpt lat="45.13216" lon="2.72174">
        <ele>1171</ele>
        <time>2000-01-01T01:09:03.000Z</time>
      </trkpt>
      <trkpt lat="45.13216" lon="2.72174">
        <ele>1171.9</ele>
        <time>2000-01-01T01:09:13.000Z</time>
      </trkpt>
      <trkpt lat="45.13216" lon="2.72206">
        <ele>1167</ele>
        <time>2000-01-01T01:09:23.000Z</time>
      </trkpt>
      <trkpt lat="45.1322" lon="2.72236">
        <ele>1165</ele>
        <time>2000-01-01T01:09:33.000Z</time>
      </trkpt>
      <trkpt lat="45.1322" lon="2.72236">
        <ele>1168.6</ele>
        <time>2000-01-01T01:09:43.000Z</time>
      </trkpt>
      <trkpt lat="45.13225" lon="2.72262">
        <ele>1163</ele>
        <time>2000-01-01T01:09:53.000Z</time>
      </trkpt>
      <trkpt lat="45.13225" lon="2.72262">
        <ele>1168.2</ele>
        <time>2000-01-01T01:10:03.000Z</time>
      </trkpt>
      <trkpt lat="45.1323" lon="2.72284">
        <ele>1167.6</ele>
        <time>2000-01-01T01:10:13.000Z</time>
      </trkpt>
      <trkpt lat="45.13239" lon="2.72296">
        <ele>1163.5</ele>
        <time>2000-01-01T01:10:23.000Z</time>
      </trkpt>
      <trkpt lat="45.13239" lon="2.72296">
        <ele>1167.3</ele>
        <time>2000-01-01T01:10:33.000Z</time>
      </trkpt>
      <trkpt lat="45.13252" lon="2.72305">
        <ele>1167.7</ele>
        <time>2000-01-01T01:10:43.000Z</time>
      </trkpt>
      <trkpt lat="45.13252" lon="2.72305">
        <ele>1167.7</ele>
        <time>2000-01-01T01:10:53.000Z</time>
      </trkpt>
      <trkpt lat="45.13254" lon="2.72325">
        <ele>1164</ele>
        <time>2000-01-01T01:11:03.000Z</time>
      </trkpt>
      <trkpt lat="45.13251" lon="2.72339">
        <ele>1169.3</ele>
        <time>2000-01-01T01:11:13.000Z</time>
      </trkpt>
      <trkpt lat="45.13251" lon="2.72339">
        <ele>1169.3</ele>
        <time>2000-01-01T01:11:23.000Z</time>
      </trkpt>
      <trkpt lat="45.13252" lon="2.72355">
        <ele>1166</ele>
        <time>2000-01-01T01:11:33.000Z</time>
      </trkpt>
      <trkpt lat="45.13255" lon="2.72391">
        <ele>1166</ele>
        <time>2000-01-01T01:11:43.000Z</time>
      </trkpt>
      <trkpt lat="45.13244" lon="2.72405">
        <ele>1162.9</ele>
        <time>2000-01-01T01:11:53.000Z</time>
      </trkpt>
      <trkpt lat="45.13244" lon="2.72405">
        <ele>1162.9</ele>
        <time>2000-01-01T01:12:03.000Z</time>
      </trkpt>
      <trkpt lat="45.13235" lon="2.7241">
        <ele>1166</ele>
        <time>2000-01-01T01:12:13.000Z</time>
      </trkpt>
      <trkpt lat="45.13235" lon="2.7241">
        <ele>1159.5</ele>
        <time>2000-01-01T01:12:23.000Z</time>
      </trkpt>
      <trkpt lat="45.13225" lon="2.72404">
        <ele>1157.2</ele>
        <time>2000-01-01T01:12:33.000Z</time>
      </trkpt>
      <trkpt lat="45.13208" lon="2.72391">
        <ele>1155</ele>
        <time>2000-01-01T01:12:43.000Z</time>
      </trkpt>
      <trkpt lat="45.13208" lon="2.72391">
        <ele>1150.6</ele>
        <time>2000-01-01T01:12:53.000Z</time>
      </trkpt>
      <trkpt lat="45.132" lon="2.72376">
        <ele>1147.4</ele>
        <time>2000-01-01T01:13:03.000Z</time>
      </trkpt>
      <trkpt lat="45.13195" lon="2.72359">
        <ele>1148</ele>
        <time>2000-01-01T01:13:13.000Z</time>
      </trkpt>
      <trkpt lat="45.13195" lon="2.72359">
        <ele>1145.2</ele>
        <time>2000-01-01T01:13:23.000Z</time>
      </trkpt>
      <trkpt lat="45.13182" lon="2.72352">
        <ele>1141.7</ele>
        <time>2000-01-01T01:13:33.000Z</time>
      </trkpt>
      <trkpt lat="45.13167" lon="2.72349">
        <ele>1145</ele>
        <time>2000-01-01T01:13:43.000Z</time>
      </trkpt>
      <trkpt lat="45.13167" lon="2.72349">
        <ele>1138.1</ele>
        <time>2000-01-01T01:13:53.000Z</time>
      </trkpt>
      <trkpt lat="45.13151" lon="2.72352">
        <ele>1137.4</ele>
        <time>2000-01-01T01:14:03.000Z</time>
      </trkpt>
      <trkpt lat="45.13133" lon="2.72364">
        <ele>1143</ele>
        <time>2000-01-01T01:14:13.000Z</time>
      </trkpt>
      <trkpt lat="45.13136" lon="2.72374">
        <ele>1139.6</ele>
        <time>2000-01-01T01:14:23.000Z</time>
      </trkpt>
      <trkpt lat="45.13136" lon="2.72374">
        <ele>1139.6</ele>
        <time>2000-01-01T01:14:33.000Z</time>
      </trkpt>
      <trkpt lat="45.13147" lon="2.72395">
        <ele>1143</ele>
        <time>2000-01-01T01:14:43.000Z</time>
      </trkpt>
      <trkpt lat="45.13147" lon="2.72395">
        <ele>1141</ele>
        <time>2000-01-01T01:14:53.000Z</time>
      </trkpt>
      <trkpt lat="45.13153" lon="2.72409">
        <ele>1141.8</ele>
        <time>2000-01-01T01:15:03.000Z</time>
      </trkpt>
      <trkpt lat="45.13157" lon="2.72429">
        <ele>1143</ele>
        <time>2000-01-01T01:15:13.000Z</time>
      </trkpt>
      <trkpt lat="45.13157" lon="2.72429">
        <ele>1143.3</ele>
        <time>2000-01-01T01:15:23.000Z</time>
      </trkpt>
      <trkpt lat="45.13156" lon="2.72448">
        <ele>1146.2</ele>
        <time>2000-01-01T01:15:33.000Z</time>
      </trkpt>
      <trkpt lat="45.13156" lon="2.72448">
        <ele>1146.2</ele>
        <time>2000-01-01T01:15:43.000Z</time>
      </trkpt>
      <trkpt lat="45.13157" lon="2.72472">
        <ele>1145</ele>
        <time>2000-01-01T01:15:53.000Z</time>
      </trkpt>
      <trkpt lat="45.13157" lon="2.72472">
        <ele>1148.5</ele>
        <time>2000-01-01T01:16:03.000Z</time>
      </trkpt>
      <trkpt lat="45.13156" lon="2.7249">
        <ele>1149.1</ele>
        <time>2000-01-01T01:16:13.000Z</time>
      </trkpt>
      <trkpt lat="45.13156" lon="2.7249">
        <ele>1149.1</ele>
        <time>2000-01-01T01:16:23.000Z</time>
      </trkpt>
      <trkpt lat="45.13151" lon="2.72509">
        <ele>1147</ele>
        <time>2000-01-01T01:16:33.000Z</time>
      </trkpt>
      <trkpt lat="45.13149" lon="2.72533">
        <ele>1152.4</ele>
        <time>2000-01-01T01:16:43.000Z</time>
      </trkpt>
      <trkpt lat="45.13149" lon="2.72533">
        <ele>1152.4</ele>
        <time>2000-01-01T01:16:53.000Z</time>
      </trkpt>
      <trkpt lat="45.13151" lon="2.7255">
        <ele>1150</ele>
        <time>2000-01-01T01:17:03.000Z</time>
      </trkpt>
      <trkpt lat="45.13151" lon="2.7255">
        <ele>1152.7</ele>
        <time>2000-01-01T01:17:13.000Z</time>
      </trkpt>
      <trkpt lat="45.13151" lon="2.72573">
        <ele>1153.9</ele>
        <time>2000-01-01T01:17:23.000Z</time>
      </trkpt>
      <trkpt lat="45.13151" lon="2.72573">
        <ele>1153.9</ele>
        <time>2000-01-01T01:17:33.000Z</time>
      </trkpt>
      <trkpt lat="45.13153" lon="2.72595">
        <ele>1152</ele>
        <time>2000-01-01T01:17:43.000Z</time>
      </trkpt>
      <trkpt lat="45.1315" lon="2.72614">
        <ele>1155.5</ele>
        <time>2000-01-01T01:17:53.000Z</time>
      </trkpt>
      <trkpt lat="45.1315" lon="2.72614">
        <ele>1155.5</ele>
        <time>2000-01-01T01:18:03.000Z</time>
      </trkpt>
      <trkpt lat="45.13139" lon="2.72634">
        <ele>1155</ele>
        <time>2000-01-01T01:18:13.000Z</time>
      </trkpt>
      <trkpt lat="45.13136" lon="2.72656">
        <ele>1160.7</ele>
        <time>2000-01-01T01:18:23.000Z</time>
      </trkpt>
      <trkpt lat="45.13136" lon="2.72656">
        <ele>1160.7</ele>
        <time>2000-01-01T01:18:33.000Z</time>
      </trkpt>
      <trkpt lat="45.13136" lon="2.72682">
        <ele>1159</ele>
        <time>2000-01-01T01:18:43.000Z</time>
      </trkpt>
      <trkpt lat="45.13136" lon="2.72682">
        <ele>1162</ele>
        <time>2000-01-01T01:18:53.000Z</time>
      </trkpt>
      <trkpt lat="45.13139" lon="2.72706">
        <ele>1162.8</ele>
        <time>2000-01-01T01:19:03.000Z</time>
      </trkpt>
      <trkpt lat="45.13144" lon="2.72732">
        <ele>1159.5</ele>
        <time>2000-01-01T01:19:13.000Z</time>
      </trkpt>
      <trkpt lat="45.13144" lon="2.72732">
        <ele>1163.4</ele>
        <time>2000-01-01T01:19:23.000Z</time>
      </trkpt>
      <trkpt lat="45.13151" lon="2.72754">
        <ele>1162.7</ele>
        <time>2000-01-01T01:19:33.000Z</time>
      </trkpt>
      <trkpt lat="45.13151" lon="2.72754">
        <ele>1162.7</ele>
        <time>2000-01-01T01:19:43.000Z</time>
      </trkpt>
      <trkpt lat="45.13152" lon="2.7277">
        <ele>1157.7</ele>
        <time>2000-01-01T01:19:53.000Z</time>
      </trkpt>
      <trkpt lat="45.13152" lon="2.7277">
        <ele>1162</ele>
        <time>2000-01-01T01:20:03.000Z</time>
      </trkpt>
      <trkpt lat="45.13164" lon="2.72801">
        <ele>1156</ele>
        <time>2000-01-01T01:20:13.000Z</time>
      </trkpt>
      <trkpt lat="45.13161" lon="2.7282">
        <ele>1157</ele>
        <time>2000-01-01T01:20:23.000Z</time>
      </trkpt>
      <trkpt lat="45.13161" lon="2.7282">
        <ele>1157</ele>
        <time>2000-01-01T01:20:33.000Z</time>
      </trkpt>
      <trkpt lat="45.13151" lon="2.72841">
        <ele>1148</ele>
        <time>2000-01-01T01:20:43.000Z</time>
      </trkpt>
      <trkpt lat="45.13151" lon="2.72841">
        <ele>1154.2</ele>
        <time>2000-01-01T01:20:53.000Z</time>
      </trkpt>
      <trkpt lat="45.13143" lon="2.72847">
        <ele>1153.8</ele>
        <time>2000-01-01T01:21:03.000Z</time>
      </trkpt>
      <trkpt lat="45.13143" lon="2.72847">
        <ele>1153.8</ele>
        <time>2000-01-01T01:21:13.000Z</time>
      </trkpt>
      <trkpt lat="45.13128" lon="2.72852">
        <ele>1148</ele>
        <time>2000-01-01T01:21:23.000Z</time>
      </trkpt>
      <trkpt lat="45.13114" lon="2.72866">
        <ele>1154.8</ele>
        <time>2000-01-01T01:21:33.000Z</time>
      </trkpt>
      <trkpt lat="45.13114" lon="2.72866">
        <ele>1154.8</ele>
        <time>2000-01-01T01:21:43.000Z</time>
      </trkpt>
      <trkpt lat="45.13106" lon="2.72892">
        <ele>1153</ele>
        <time>2000-01-01T01:21:53.000Z</time>
      </trkpt>
      <trkpt lat="45.13117" lon="2.7291">
        <ele>1152.5</ele>
        <time>2000-01-01T01:22:03.000Z</time>
      </trkpt>
      <trkpt lat="45.13117" lon="2.7291">
        <ele>1152.5</ele>
        <time>2000-01-01T01:22:13.000Z</time>
      </trkpt>
      <trkpt lat="45.13125" lon="2.72933">
        <ele>1153</ele>
        <time>2000-01-01T01:22:23.000Z</time>
      </trkpt>
      <trkpt lat="45.13125" lon="2.72933">
        <ele>1151.9</ele>
        <time>2000-01-01T01:22:33.000Z</time>
      </trkpt>
      <trkpt lat="45.13133" lon="2.72951">
        <ele>1150.1</ele>
        <time>2000-01-01T01:22:43.000Z</time>
      </trkpt>
      <trkpt lat="45.13133" lon="2.72951">
        <ele>1150.1</ele>
        <time>2000-01-01T01:22:53.000Z</time>
      </trkpt>
      <trkpt lat="45.13143" lon="2.72978">
        <ele>1153</ele>
        <time>2000-01-01T01:23:03.000Z</time>
      </trkpt>
      <trkpt lat="45.1315" lon="2.73003">
        <ele>1149</ele>
        <time>2000-01-01T01:23:13.000Z</time>
      </trkpt>
      <trkpt lat="45.1315" lon="2.73003">
        <ele>1147.7</ele>
        <time>2000-01-01T01:23:23.000Z</time>
      </trkpt>
      <trkpt lat="45.13159" lon="2.73029">
        <ele>1148</ele>
        <time>2000-01-01T01:23:33.000Z</time>
      </trkpt>
      <trkpt lat="45.13159" lon="2.73029">
        <ele>1145.9</ele>
        <time>2000-01-01T01:23:43.000Z</time>
      </trkpt>
      <trkpt lat="45.13167" lon="2.73063">
        <ele>1147</ele>
        <time>2000-01-01T01:23:53.000Z</time>
      </trkpt>
      <trkpt lat="45.13176" lon="2.73071">
        <ele>1142.7</ele>
        <time>2000-01-01T01:24:03.000Z</time>
      </trkpt>
      <trkpt lat="45.13176" lon="2.73071">
        <ele>1142.7</ele>
        <time>2000-01-01T01:24:13.000Z</time>
      </trkpt>
      <trkpt lat="45.13189" lon="2.7309">
        <ele>1146</ele>
        <time>2000-01-01T01:24:23.000Z</time>
      </trkpt>
      <trkpt lat="45.13189" lon="2.7309">
        <ele>1141.4</ele>
        <time>2000-01-01T01:24:33.000Z</time>
      </trkpt>
      <trkpt lat="45.132" lon="2.73112">
        <ele>1142</ele>
        <time>2000-01-01T01:24:43.000Z</time>
      </trkpt>
      <trkpt lat="45.1321" lon="2.73135">
        <ele>1141.6</ele>
        <time>2000-01-01T01:24:53.000Z</time>
      </trkpt>
      <trkpt lat="45.1321" lon="2.73135">
        <ele>1141.6</ele>
        <time>2000-01-01T01:25:03.000Z</time>
      </trkpt>
      <trkpt lat="45.13222" lon="2.73158">
        <ele>1142</ele>
        <time>2000-01-01T01:25:13.000Z</time>
      </trkpt>
      <trkpt lat="45.13222" lon="2.73158">
        <ele>1141.1</ele>
        <time>2000-01-01T01:25:23.000Z</time>
      </trkpt>
      <trkpt lat="45.13232" lon="2.73177">
        <ele>1140.1</ele>
        <time>2000-01-01T01:25:33.000Z</time>
      </trkpt>
      <trkpt lat="45.13243" lon="2.73207">
        <ele>1139</ele>
        <time>2000-01-01T01:25:43.000Z</time>
      </trkpt>
      <trkpt lat="45.13243" lon="2.73207">
        <ele>1137.8</ele>
        <time>2000-01-01T01:25:53.000Z</time>
      </trkpt>
      <trkpt lat="45.13254" lon="2.73243">
        <ele>1137</ele>
        <time>2000-01-01T01:26:03.000Z</time>
      </trkpt>
      <trkpt lat="45.13259" lon="2.73265">
        <ele>1134.3</ele>
        <time>2000-01-01T01:26:13.000Z</time>
      </trkpt>
      <trkpt lat="45.13259" lon="2.73265">
        <ele>1134.3</ele>
        <time>2000-01-01T01:26:23.000Z</time>
      </trkpt>
      <trkpt lat="45.13258" lon="2.73285">
        <ele>1133</ele>
        <time>2000-01-01T01:26:33.000Z</time>
      </trkpt>
      <trkpt lat="45.13258" lon="2.73285">
        <ele>1135.8</ele>
        <time>2000-01-01T01:26:43.000Z</time>
      </trkpt>
      <trkpt lat="45.13263" lon="2.73314">
        <ele>1133</ele>
        <time>2000-01-01T01:26:53.000Z</time>
      </trkpt>
      <trkpt lat="45.13267" lon="2.73338">
        <ele>1137.7</ele>
        <time>2000-01-01T01:27:03.000Z</time>
      </trkpt>
      <trkpt lat="45.13267" lon="2.73338">
        <ele>1137.7</ele>
        <time>2000-01-01T01:27:13.000Z</time>
      </trkpt>
      <trkpt lat="45.13274" lon="2.73371">
        <ele>1133</ele>
        <time>2000-01-01T01:27:23.000Z</time>
      </trkpt>
      <trkpt lat="45.13274" lon="2.73371">
        <ele>1135.7</ele>
        <time>2000-01-01T01:27:33.000Z</time>
      </trkpt>
      <trkpt lat="45.13288" lon="2.73411">
        <ele>1133</ele>
        <time>2000-01-01T01:27:43.000Z</time>
      </trkpt>
      <trkpt lat="45.13292" lon="2.73457">
        <ele>1130</ele>
        <time>2000-01-01T01:27:53.000Z</time>
      </trkpt>
      <trkpt lat="45.13292" lon="2.73457">
        <ele>1127.7</ele>
        <time>2000-01-01T01:28:03.000Z</time>
      </trkpt>
      <trkpt lat="45.13294" lon="2.73484">
        <ele>1129</ele>
        <time>2000-01-01T01:28:13.000Z</time>
      </trkpt>
      <trkpt lat="45.13294" lon="2.73484">
        <ele>1126.7</ele>
        <time>2000-01-01T01:28:23.000Z</time>
      </trkpt>
      <trkpt lat="45.13297" lon="2.73509">
        <ele>1125.4</ele>
        <time>2000-01-01T01:28:33.000Z</time>
      </trkpt>
      <trkpt lat="45.13298" lon="2.73551">
        <ele>1129</ele>
        <time>2000-01-01T01:28:43.000Z</time>
      </trkpt>
      <trkpt lat="45.13298" lon="2.73551">
        <ele>1124.4</ele>
        <time>2000-01-01T01:28:53.000Z</time>
      </trkpt>
      <trkpt lat="45.13298" lon="2.73582">
        <ele>1125</ele>
        <time>2000-01-01T01:29:03.000Z</time>
      </trkpt>
      <trkpt lat="45.13298" lon="2.73582">
        <ele>1123.2</ele>
        <time>2000-01-01T01:29:13.000Z</time>
      </trkpt>
      <trkpt lat="45.13297" lon="2.73617">
        <ele>1123</ele>
        <time>2000-01-01T01:29:23.000Z</time>
      </trkpt>
      <trkpt lat="45.13291" lon="2.73656">
        <ele>1121</ele>
        <time>2000-01-01T01:29:33.000Z</time>
      </trkpt>
      <trkpt lat="45.13291" lon="2.73656">
        <ele>1123.9</ele>
        <time>2000-01-01T01:29:43.000Z</time>
      </trkpt>
      <trkpt lat="45.13288" lon="2.73698">
        <ele>1121</ele>
        <time>2000-01-01T01:29:53.000Z</time>
      </trkpt>
      <trkpt lat="45.13283" lon="2.73736">
        <ele>1120</ele>
        <time>2000-01-01T01:30:03.000Z</time>
      </trkpt>
      <trkpt lat="45.13279" lon="2.73771">
        <ele>1119</ele>
        <time>2000-01-01T01:30:13.000Z</time>
      </trkpt>
      <trkpt lat="45.13265" lon="2.7381">
        <ele>1119</ele>
        <time>2000-01-01T01:30:23.000Z</time>
      </trkpt>
      <trkpt lat="45.13265" lon="2.7381">
        <ele>1121.8</ele>
        <time>2000-01-01T01:30:33.000Z</time>
      </trkpt>
      <trkpt lat="45.13251" lon="2.73857">
        <ele>1120</ele>
        <time>2000-01-01T01:30:43.000Z</time>
      </trkpt>
      <trkpt lat="45.13237" lon="2.7389">
        <ele>1122</ele>
        <time>2000-01-01T01:30:53.000Z</time>
      </trkpt>
      <trkpt lat="45.13237" lon="2.7389">
        <ele>1126</ele>
        <time>2000-01-01T01:31:03.000Z</time>
      </trkpt>
      <trkpt lat="45.13224" lon="2.73926">
        <ele>1124</ele>
        <time>2000-01-01T01:31:13.000Z</time>
      </trkpt>
      <trkpt lat="45.13214" lon="2.7397">
        <ele>1125</ele>
        <time>2000-01-01T01:31:23.000Z</time>
      </trkpt>
      <trkpt lat="45.13203" lon="2.73991">
        <ele>1130.4</ele>
        <time>2000-01-01T01:31:33.000Z</time>
      </trkpt>
      <trkpt lat="45.13203" lon="2.73991">
        <ele>1130.4</ele>
        <time>2000-01-01T01:31:43.000Z</time>
      </trkpt>
      <trkpt lat="45.13194" lon="2.73999">
        <ele>1126</ele>
        <time>2000-01-01T01:31:53.000Z</time>
      </trkpt>
      <trkpt lat="45.13182" lon="2.74011">
        <ele>1130.7</ele>
        <time>2000-01-01T01:32:03.000Z</time>
      </trkpt>
      <trkpt lat="45.13182" lon="2.74011">
        <ele>1130.7</ele>
        <time>2000-01-01T01:32:13.000Z</time>
      </trkpt>
      <trkpt lat="45.13174" lon="2.7403">
        <ele>1126</ele>
        <time>2000-01-01T01:32:23.000Z</time>
      </trkpt>
      <trkpt lat="45.1316" lon="2.74032">
        <ele>1127.5</ele>
        <time>2000-01-01T01:32:33.000Z</time>
      </trkpt>
      <trkpt lat="45.1316" lon="2.74032">
        <ele>1127.5</ele>
        <time>2000-01-01T01:32:43.000Z</time>
      </trkpt>
      <trkpt lat="45.13152" lon="2.74042">
        <ele>1122</ele>
        <time>2000-01-01T01:32:53.000Z</time>
      </trkpt>
      <trkpt lat="45.13152" lon="2.74042">
        <ele>1125.7</ele>
        <time>2000-01-01T01:33:03.000Z</time>
      </trkpt>
      <trkpt lat="45.13151" lon="2.74053">
        <ele>1123.3</ele>
        <time>2000-01-01T01:33:13.000Z</time>
      </trkpt>
      <trkpt lat="45.13164" lon="2.74063">
        <ele>1120</ele>
        <time>2000-01-01T01:33:23.000Z</time>
      </trkpt>
      <trkpt lat="45.13182" lon="2.74071">
        <ele>1115</ele>
        <time>2000-01-01T01:33:33.000Z</time>
      </trkpt>
      <trkpt lat="45.13198" lon="2.74082">
        <ele>1115.1</ele>
        <time>2000-01-01T01:33:43.000Z</time>
      </trkpt>
      <trkpt lat="45.13216" lon="2.74093">
        <ele>1112</ele>
        <time>2000-01-01T01:33:53.000Z</time>
      </trkpt>
      <trkpt lat="45.13237" lon="2.74102">
        <ele>1107</ele>
        <time>2000-01-01T01:34:03.000Z</time>
      </trkpt>
      <trkpt lat="45.13255" lon="2.74113">
        <ele>1106</ele>
        <time>2000-01-01T01:34:13.000Z</time>
      </trkpt>
      <trkpt lat="45.13269" lon="2.74137">
        <ele>1105</ele>
        <time>2000-01-01T01:34:23.000Z</time>
      </trkpt>
      <trkpt lat="45.1328" lon="2.74162">
        <ele>1103</ele>
        <time>2000-01-01T01:34:33.000Z</time>
      </trkpt>
      <trkpt lat="45.13293" lon="2.7419">
        <ele>1101</ele>
        <time>2000-01-01T01:34:43.000Z</time>
      </trkpt>
      <trkpt lat="45.13306" lon="2.74214">
        <ele>1100</ele>
        <time>2000-01-01T01:34:53.000Z</time>
      </trkpt>
      <trkpt lat="45.1332" lon="2.74235">
        <ele>1100</ele>
        <time>2000-01-01T01:35:03.000Z</time>
      </trkpt>
      <trkpt lat="45.13329" lon="2.74254">
        <ele>1100.4</ele>
        <time>2000-01-01T01:35:13.000Z</time>
      </trkpt>
      <trkpt lat="45.13344" lon="2.74273">
        <ele>1099</ele>
        <time>2000-01-01T01:35:23.000Z</time>
      </trkpt>
      <trkpt lat="45.13357" lon="2.74298">
        <ele>1094</ele>
        <time>2000-01-01T01:35:33.000Z</time>
      </trkpt>
      <trkpt lat="45.13369" lon="2.74329">
        <ele>1091</ele>
        <time>2000-01-01T01:35:43.000Z</time>
      </trkpt>
      <trkpt lat="45.13379" lon="2.74359">
        <ele>1088</ele>
        <time>2000-01-01T01:35:53.000Z</time>
      </trkpt>
      <trkpt lat="45.13387" lon="2.74385">
        <ele>1085</ele>
        <time>2000-01-01T01:36:03.000Z</time>
      </trkpt>
      <trkpt lat="45.13396" lon="2.74411">
        <ele>1083</ele>
        <time>2000-01-01T01:36:13.000Z</time>
      </trkpt>
      <trkpt lat="45.13408" lon="2.74431">
        <ele>1082</ele>
        <time>2000-01-01T01:36:23.000Z</time>
      </trkpt>
      <trkpt lat="45.13421" lon="2.74453">
        <ele>1081</ele>
        <time>2000-01-01T01:36:33.000Z</time>
      </trkpt>
      <trkpt lat="45.13432" lon="2.74472">
        <ele>1078.6</ele>
        <time>2000-01-01T01:36:43.000Z</time>
      </trkpt>
      <trkpt lat="45.13442" lon="2.74488">
        <ele>1079</ele>
        <time>2000-01-01T01:36:53.000Z</time>
      </trkpt>
      <trkpt lat="45.13446" lon="2.74507">
        <ele>1076.7</ele>
        <time>2000-01-01T01:37:03.000Z</time>
      </trkpt>
      <trkpt lat="45.1345" lon="2.74531">
        <ele>1078</ele>
        <time>2000-01-01T01:37:13.000Z</time>
      </trkpt>
      <trkpt lat="45.1345" lon="2.74532">
        <ele>1076</ele>
        <time>2000-01-01T01:37:23.000Z</time>
      </trkpt>
      <trkpt lat="45.13451" lon="2.74532">
        <ele>1076</ele>
        <time>2000-01-01T01:37:33.000Z</time>
      </trkpt>
      <trkpt lat="45.13452" lon="2.7454">
        <ele>1076.1</ele>
        <time>2000-01-01T01:37:43.000Z</time>
      </trkpt>
      <trkpt lat="45.13454" lon="2.74545">
        <ele>1076.2</ele>
        <time>2000-01-01T01:37:53.000Z</time>
      </trkpt>
      <trkpt lat="45.13455" lon="2.74552">
        <ele>1076.3</ele>
        <time>2000-01-01T01:38:03.000Z</time>
      </trkpt>
      <trkpt lat="45.13456" lon="2.74556">
        <ele>1077</ele>
        <time>2000-01-01T01:38:13.000Z</time>
      </trkpt>
      <trkpt lat="45.13458" lon="2.74569">
        <ele>1076</ele>
        <time>2000-01-01T01:38:23.000Z</time>
      </trkpt>
      <trkpt lat="45.13462" lon="2.74577">
        <ele>1076.1</ele>
        <time>2000-01-01T01:38:33.000Z</time>
      </trkpt>
      <trkpt lat="45.13467" lon="2.74582">
        <ele>1077</ele>
        <time>2000-01-01T01:38:43.000Z</time>
      </trkpt>
      <trkpt lat="45.13478" lon="2.74591">
        <ele>1076.6</ele>
        <time>2000-01-01T01:38:53.000Z</time>
      </trkpt>
      <trkpt lat="45.1349" lon="2.74605">
        <ele>1077</ele>
        <time>2000-01-01T01:39:03.000Z</time>
      </trkpt>
      <trkpt lat="45.13498" lon="2.74613">
        <ele>1076.7</ele>
        <time>2000-01-01T01:39:13.000Z</time>
      </trkpt>
      <trkpt lat="45.13503" lon="2.74616">
        <ele>1076.8</ele>
        <time>2000-01-01T01:39:23.000Z</time>
      </trkpt>
      <trkpt lat="45.13511" lon="2.74621">
        <ele>1077</ele>
        <time>2000-01-01T01:39:33.000Z</time>
      </trkpt>
      <trkpt lat="45.13525" lon="2.7463">
        <ele>1077.8</ele>
        <time>2000-01-01T01:39:43.000Z</time>
      </trkpt>
      <trkpt lat="45.13538" lon="2.74641">
        <ele>1078</ele>
        <time>2000-01-01T01:39:53.000Z</time>
      </trkpt>
      <trkpt lat="45.13552" lon="2.7465">
        <ele>1079.3</ele>
        <time>2000-01-01T01:40:03.000Z</time>
      </trkpt>
      <trkpt lat="45.13566" lon="2.74657">
        <ele>1079</ele>
        <time>2000-01-01T01:40:13.000Z</time>
      </trkpt>
      <trkpt lat="45.13578" lon="2.74659">
        <ele>1081.7</ele>
        <time>2000-01-01T01:40:23.000Z</time>
      </trkpt>
      <trkpt lat="45.13583" lon="2.7466">
        <ele>1082.2</ele>
        <time>2000-01-01T01:40:33.000Z</time>
      </trkpt>
      <trkpt lat="45.13591" lon="2.74662">
        <ele>1080</ele>
        <time>2000-01-01T01:40:43.000Z</time>
      </trkpt>
      <trkpt lat="45.13607" lon="2.74665">
        <ele>1083.8</ele>
        <time>2000-01-01T01:40:53.000Z</time>
      </trkpt>
      <trkpt lat="45.13624" lon="2.74673">
        <ele>1082</ele>
        <time>2000-01-01T01:41:03.000Z</time>
      </trkpt>
      <trkpt lat="45.13631" lon="2.74676">
        <ele>1084.9</ele>
        <time>2000-01-01T01:41:13.000Z</time>
      </trkpt>
      <trkpt lat="45.13637" lon="2.74681">
        <ele>1084.9</ele>
        <time>2000-01-01T01:41:23.000Z</time>
      </trkpt>
      <trkpt lat="45.13642" lon="2.74684">
        <ele>1084</ele>
        <time>2000-01-01T01:41:33.000Z</time>
      </trkpt>
      <trkpt lat="45.13651" lon="2.74689">
        <ele>1085.3</ele>
        <time>2000-01-01T01:41:43.000Z</time>
      </trkpt>
      <trkpt lat="45.13669" lon="2.74699">
        <ele>1084</ele>
        <time>2000-01-01T01:41:53.000Z</time>
      </trkpt>
      <trkpt lat="45.13697" lon="2.74717">
        <ele>1085</ele>
        <time>2000-01-01T01:42:03.000Z</time>
      </trkpt>
      <trkpt lat="45.13713" lon="2.74733">
        <ele>1085</ele>
        <time>2000-01-01T01:42:13.000Z</time>
      </trkpt>
      <trkpt lat="45.13722" lon="2.74743">
        <ele>1088.2</ele>
        <time>2000-01-01T01:42:23.000Z</time>
      </trkpt>
      <trkpt lat="45.13725" lon="2.74746">
        <ele>1088.4</ele>
        <time>2000-01-01T01:42:33.000Z</time>
      </trkpt>
      <trkpt lat="45.13729" lon="2.74748">
        <ele>1088.6</ele>
        <time>2000-01-01T01:42:43.000Z</time>
      </trkpt>
      <trkpt lat="45.13735" lon="2.74752">
        <ele>1085</ele>
        <time>2000-01-01T01:42:53.000Z</time>
      </trkpt>
      <trkpt lat="45.13742" lon="2.74756">
        <ele>1089.1</ele>
        <time>2000-01-01T01:43:03.000Z</time>
      </trkpt>
      <trkpt lat="45.1375" lon="2.74763">
        <ele>1089.5</ele>
        <time>2000-01-01T01:43:13.000Z</time>
      </trkpt>
      <trkpt lat="45.13762" lon="2.7478">
        <ele>1086</ele>
        <time>2000-01-01T01:43:23.000Z</time>
      </trkpt>
      <trkpt lat="45.13773" lon="2.74792">
        <ele>1090.4</ele>
        <time>2000-01-01T01:43:33.000Z</time>
      </trkpt>
      <trkpt lat="45.13779" lon="2.74795">
        <ele>1086</ele>
        <time>2000-01-01T01:43:43.000Z</time>
      </trkpt>
      <trkpt lat="45.13787" lon="2.74796">
        <ele>1091.4</ele>
        <time>2000-01-01T01:43:53.000Z</time>
      </trkpt>
      <trkpt lat="45.13804" lon="2.74797">
        <ele>1088</ele>
        <time>2000-01-01T01:44:03.000Z</time>
      </trkpt>
      <trkpt lat="45.13818" lon="2.748">
        <ele>1093.7</ele>
        <time>2000-01-01T01:44:13.000Z</time>
      </trkpt>
      <trkpt lat="45.13821" lon="2.74806">
        <ele>1091</ele>
        <time>2000-01-01T01:44:23.000Z</time>
      </trkpt>
      <trkpt lat="45.13837" lon="2.74843">
        <ele>1093</ele>
        <time>2000-01-01T01:44:33.000Z</time>
      </trkpt>
      <trkpt lat="45.13859" lon="2.74875">
        <ele>1094</ele>
        <time>2000-01-01T01:44:43.000Z</time>
      </trkpt>
      <trkpt lat="45.13864" lon="2.74881">
        <ele>1094.6</ele>
        <time>2000-01-01T01:44:53.000Z</time>
      </trkpt>
      <trkpt lat="45.13876" lon="2.74899">
        <ele>1094</ele>
        <time>2000-01-01T01:45:03.000Z</time>
      </trkpt>
      <trkpt lat="45.13886" lon="2.74911">
        <ele>1096</ele>
        <time>2000-01-01T01:45:13.000Z</time>
      </trkpt>
      <trkpt lat="45.13907" lon="2.74946">
        <ele>1094</ele>
        <time>2000-01-01T01:45:23.000Z</time>
      </trkpt>
      <trkpt lat="45.13923" lon="2.74963">
        <ele>1094</ele>
        <time>2000-01-01T01:45:33.000Z</time>
      </trkpt>
      <trkpt lat="45.13928" lon="2.74966">
        <ele>1096.2</ele>
        <time>2000-01-01T01:45:43.000Z</time>
      </trkpt>
      <trkpt lat="45.13937" lon="2.74967">
        <ele>1096.7</ele>
        <time>2000-01-01T01:45:53.000Z</time>
      </trkpt>
      <trkpt lat="45.13939" lon="2.74971">
        <ele>1096.7</ele>
        <time>2000-01-01T01:46:03.000Z</time>
      </trkpt>
      <trkpt lat="45.13943" lon="2.74982">
        <ele>1094</ele>
        <time>2000-01-01T01:46:13.000Z</time>
      </trkpt>
      <trkpt lat="45.13943" lon="2.74992">
        <ele>1096.1</ele>
        <time>2000-01-01T01:46:23.000Z</time>
      </trkpt>
      <trkpt lat="45.13947" lon="2.75015">
        <ele>1094</ele>
        <time>2000-01-01T01:46:33.000Z</time>
      </trkpt>
      <trkpt lat="45.13952" lon="2.75032">
        <ele>1095.4</ele>
        <time>2000-01-01T01:46:43.000Z</time>
      </trkpt>
      <trkpt lat="45.13959" lon="2.75049">
        <ele>1094</ele>
        <time>2000-01-01T01:46:53.000Z</time>
      </trkpt>
      <trkpt lat="45.13968" lon="2.75063">
        <ele>1094.6</ele>
        <time>2000-01-01T01:47:03.000Z</time>
      </trkpt>
      <trkpt lat="45.13976" lon="2.75073">
        <ele>1092</ele>
        <time>2000-01-01T01:47:13.000Z</time>
      </trkpt>
      <trkpt lat="45.13995" lon="2.75086">
        <ele>1092</ele>
        <time>2000-01-01T01:47:23.000Z</time>
      </trkpt>
      <trkpt lat="45.14006" lon="2.75095">
        <ele>1094.1</ele>
        <time>2000-01-01T01:47:33.000Z</time>
      </trkpt>
      <trkpt lat="45.14013" lon="2.75105">
        <ele>1094</ele>
        <time>2000-01-01T01:47:43.000Z</time>
      </trkpt>
      <trkpt lat="45.14024" lon="2.75133">
        <ele>1094</ele>
        <time>2000-01-01T01:47:53.000Z</time>
      </trkpt>
      <trkpt lat="45.14037" lon="2.75162">
        <ele>1094</ele>
        <time>2000-01-01T01:48:03.000Z</time>
      </trkpt>
      <trkpt lat="45.14048" lon="2.75193">
        <ele>1094</ele>
        <time>2000-01-01T01:48:13.000Z</time>
      </trkpt>
      <trkpt lat="45.14055" lon="2.75208">
        <ele>1096.4</ele>
        <time>2000-01-01T01:48:23.000Z</time>
      </trkpt>
      <trkpt lat="45.14059" lon="2.75223">
        <ele>1095</ele>
        <time>2000-01-01T01:48:33.000Z</time>
      </trkpt>
      <trkpt lat="45.14062" lon="2.75239">
        <ele>1096.2</ele>
        <time>2000-01-01T01:48:43.000Z</time>
      </trkpt>
      <trkpt lat="45.14065" lon="2.75247">
        <ele>1096.5</ele>
        <time>2000-01-01T01:48:53.000Z</time>
      </trkpt>
      <trkpt lat="45.14074" lon="2.75262">
        <ele>1095</ele>
        <time>2000-01-01T01:49:03.000Z</time>
      </trkpt>
      <trkpt lat="45.14091" lon="2.75284">
        <ele>1096</ele>
        <time>2000-01-01T01:49:13.000Z</time>
      </trkpt>
      <trkpt lat="45.14107" lon="2.75305">
        <ele>1098</ele>
        <time>2000-01-01T01:49:23.000Z</time>
      </trkpt>
      <trkpt lat="45.14116" lon="2.75319">
        <ele>1101.5</ele>
        <time>2000-01-01T01:49:33.000Z</time>
      </trkpt>
      <trkpt lat="45.14124" lon="2.75326">
        <ele>1100</ele>
        <time>2000-01-01T01:49:43.000Z</time>
      </trkpt>
      <trkpt lat="45.14138" lon="2.75333">
        <ele>1104.9</ele>
        <time>2000-01-01T01:49:53.000Z</time>
      </trkpt>
      <trkpt lat="45.14165" lon="2.75342">
        <ele>1101</ele>
        <time>2000-01-01T01:50:03.000Z</time>
      </trkpt>
      <trkpt lat="45.1417" lon="2.75354">
        <ele>1107.1</ele>
        <time>2000-01-01T01:50:13.000Z</time>
      </trkpt>
      <trkpt lat="45.1417" lon="2.75356">
        <ele>1106.9</ele>
        <time>2000-01-01T01:50:23.000Z</time>
      </trkpt>
      <trkpt lat="45.14184" lon="2.75394">
        <ele>1105</ele>
        <time>2000-01-01T01:50:33.000Z</time>
      </trkpt>
      <trkpt lat="45.14189" lon="2.7541">
        <ele>1106.6</ele>
        <time>2000-01-01T01:50:43.000Z</time>
      </trkpt>
      <trkpt lat="45.14196" lon="2.75433">
        <ele>1107</ele>
        <time>2000-01-01T01:50:53.000Z</time>
      </trkpt>
      <trkpt lat="45.142" lon="2.75447">
        <ele>1107</ele>
        <time>2000-01-01T01:51:03.000Z</time>
      </trkpt>
      <trkpt lat="45.14208" lon="2.75505">
        <ele>1107</ele>
        <time>2000-01-01T01:51:13.000Z</time>
      </trkpt>
      <trkpt lat="45.1421" lon="2.75541">
        <ele>1105</ele>
        <time>2000-01-01T01:51:23.000Z</time>
      </trkpt>
      <trkpt lat="45.14215" lon="2.75563">
        <ele>1105.4</ele>
        <time>2000-01-01T01:51:33.000Z</time>
      </trkpt>
      <trkpt lat="45.14228" lon="2.7561">
        <ele>1105</ele>
        <time>2000-01-01T01:51:43.000Z</time>
      </trkpt>
      <trkpt lat="45.14237" lon="2.7564">
        <ele>1106</ele>
        <time>2000-01-01T01:51:53.000Z</time>
      </trkpt>
      <trkpt lat="45.14248" lon="2.75668">
        <ele>1107</ele>
        <time>2000-01-01T01:52:03.000Z</time>
      </trkpt>
      <trkpt lat="45.14256" lon="2.75688">
        <ele>1106.8</ele>
        <time>2000-01-01T01:52:13.000Z</time>
      </trkpt>
      <trkpt lat="45.14259" lon="2.75709">
        <ele>1109</ele>
        <time>2000-01-01T01:52:23.000Z</time>
      </trkpt>
      <trkpt lat="45.14262" lon="2.75736">
        <ele>1109</ele>
        <time>2000-01-01T01:52:33.000Z</time>
      </trkpt>
      <trkpt lat="45.14264" lon="2.75782">
        <ele>1109</ele>
        <time>2000-01-01T01:52:43.000Z</time>
      </trkpt>
      <trkpt lat="45.14266" lon="2.75814">
        <ele>1107</ele>
        <time>2000-01-01T01:52:53.000Z</time>
      </trkpt>
      <trkpt lat="45.14267" lon="2.75823">
        <ele>1106</ele>
        <time>2000-01-01T01:53:03.000Z</time>
      </trkpt>
      <trkpt lat="45.14269" lon="2.75835">
        <ele>1106</ele>
        <time>2000-01-01T01:53:13.000Z</time>
      </trkpt>
      <trkpt lat="45.14273" lon="2.75853">
        <ele>1107</ele>
        <time>2000-01-01T01:53:23.000Z</time>
      </trkpt>
      <trkpt lat="45.14278" lon="2.75876">
        <ele>1105.5</ele>
        <time>2000-01-01T01:53:33.000Z</time>
      </trkpt>
      <trkpt lat="45.14286" lon="2.75883">
        <ele>1107</ele>
        <time>2000-01-01T01:53:43.000Z</time>
      </trkpt>
      <trkpt lat="45.14292" lon="2.75892">
        <ele>1108</ele>
        <time>2000-01-01T01:53:53.000Z</time>
      </trkpt>
      <trkpt lat="45.14296" lon="2.75905">
        <ele>1107</ele>
        <time>2000-01-01T01:54:03.000Z</time>
      </trkpt>
      <trkpt lat="45.14302" lon="2.75935">
        <ele>1107.5</ele>
        <time>2000-01-01T01:54:13.000Z</time>
      </trkpt>
      <trkpt lat="45.14309" lon="2.75979">
        <ele>1108</ele>
        <time>2000-01-01T01:54:23.000Z</time>
      </trkpt>
      <trkpt lat="45.14316" lon="2.76003">
        <ele>1113.1</ele>
        <time>2000-01-01T01:54:33.000Z</time>
      </trkpt>
      <trkpt lat="45.14321" lon="2.7601">
        <ele>1108</ele>
        <time>2000-01-01T01:54:43.000Z</time>
      </trkpt>
      <trkpt lat="45.14329" lon="2.7602">
        <ele>1115.2</ele>
        <time>2000-01-01T01:54:53.000Z</time>
      </trkpt>
      <trkpt lat="45.14336" lon="2.76034">
        <ele>1110</ele>
        <time>2000-01-01T01:55:03.000Z</time>
      </trkpt>
      <trkpt lat="45.14338" lon="2.76045">
        <ele>1116.1</ele>
        <time>2000-01-01T01:55:13.000Z</time>
      </trkpt>
      <trkpt lat="45.14338" lon="2.76059">
        <ele>1115.6</ele>
        <time>2000-01-01T01:55:23.000Z</time>
      </trkpt>
      <trkpt lat="45.14335" lon="2.76122">
        <ele>1116</ele>
        <time>2000-01-01T01:55:33.000Z</time>
      </trkpt>
      <trkpt lat="45.14333" lon="2.76174">
        <ele>1117</ele>
        <time>2000-01-01T01:55:43.000Z</time>
      </trkpt>
      <trkpt lat="45.14332" lon="2.76202">
        <ele>1117</ele>
        <time>2000-01-01T01:55:53.000Z</time>
      </trkpt>
      <trkpt lat="45.14332" lon="2.76245">
        <ele>1117</ele>
        <time>2000-01-01T01:56:03.000Z</time>
      </trkpt>
      <trkpt lat="45.14333" lon="2.76298">
        <ele>1118</ele>
        <time>2000-01-01T01:56:13.000Z</time>
      </trkpt>
      <trkpt lat="45.14331" lon="2.76325">
        <ele>1118</ele>
        <time>2000-01-01T01:56:23.000Z</time>
      </trkpt>
      <trkpt lat="45.14329" lon="2.76353">
        <ele>1118</ele>
        <time>2000-01-01T01:56:33.000Z</time>
      </trkpt>
      <trkpt lat="45.14326" lon="2.76385">
        <ele>1117</ele>
        <time>2000-01-01T01:56:43.000Z</time>
      </trkpt>
      <trkpt lat="45.14326" lon="2.76402">
        <ele>1117.7</ele>
        <time>2000-01-01T01:56:53.000Z</time>
      </trkpt>
      <trkpt lat="45.14327" lon="2.76434">
        <ele>1117</ele>
        <time>2000-01-01T01:57:03.000Z</time>
      </trkpt>
      <trkpt lat="45.14331" lon="2.76469">
        <ele>1116</ele>
        <time>2000-01-01T01:57:13.000Z</time>
      </trkpt>
      <trkpt lat="45.14336" lon="2.76516">
        <ele>1116</ele>
        <time>2000-01-01T01:57:23.000Z</time>
      </trkpt>
      <trkpt lat="45.14338" lon="2.76556">
        <ele>1116</ele>
        <time>2000-01-01T01:57:33.000Z</time>
      </trkpt>
      <trkpt lat="45.14344" lon="2.76599">
        <ele>1115</ele>
        <time>2000-01-01T01:57:43.000Z</time>
      </trkpt>
      <trkpt lat="45.14347" lon="2.76611">
        <ele>1117.5</ele>
        <time>2000-01-01T01:57:53.000Z</time>
      </trkpt>
      <trkpt lat="45.14345" lon="2.76612">
        <ele>1117</ele>
        <time>2000-01-01T01:58:03.000Z</time>
      </trkpt>
      <trkpt lat="45.14345" lon="2.76612">
        <ele>1117</ele>
        <time>2000-01-01T01:58:13.000Z</time>
      </trkpt>
      <trkpt lat="45.14347" lon="2.76611">
        <ele>1117.5</ele>
        <time>2000-01-01T01:58:23.000Z</time>
      </trkpt>
      <trkpt lat="45.14349" lon="2.76622">
        <ele>1113</ele>
        <time>2000-01-01T01:58:33.000Z</time>
      </trkpt>
      <trkpt lat="45.14353" lon="2.76634">
        <ele>1117</ele>
        <time>2000-01-01T01:58:43.000Z</time>
      </trkpt>
      <trkpt lat="45.1436" lon="2.76646">
        <ele>1113</ele>
        <time>2000-01-01T01:58:53.000Z</time>
      </trkpt>
      <trkpt lat="45.14384" lon="2.76674">
        <ele>1114</ele>
        <time>2000-01-01T01:59:03.000Z</time>
      </trkpt>
      <trkpt lat="45.14401" lon="2.76697">
        <ele>1116</ele>
        <time>2000-01-01T01:59:13.000Z</time>
      </trkpt>
      <trkpt lat="45.14416" lon="2.76716">
        <ele>1116</ele>
        <time>2000-01-01T01:59:23.000Z</time>
      </trkpt>
      <trkpt lat="45.14433" lon="2.76739">
        <ele>1117</ele>
        <time>2000-01-01T01:59:33.000Z</time>
      </trkpt>
      <trkpt lat="45.14441" lon="2.76746">
        <ele>1119.9</ele>
        <time>2000-01-01T01:59:43.000Z</time>
      </trkpt>
      <trkpt lat="45.14459" lon="2.76763">
        <ele>1117</ele>
        <time>2000-01-01T01:59:53.000Z</time>
      </trkpt>
      <trkpt lat="45.14479" lon="2.7678">
        <ele>1117</ele>
        <time>2000-01-01T02:00:03.000Z</time>
      </trkpt>
      <trkpt lat="45.1449" lon="2.76788">
        <ele>1118.1</ele>
        <time>2000-01-01T02:00:13.000Z</time>
      </trkpt>
      <trkpt lat="45.14498" lon="2.76792">
        <ele>1116</ele>
        <time>2000-01-01T02:00:23.000Z</time>
      </trkpt>
      <trkpt lat="45.14505" lon="2.76794">
        <ele>1117.9</ele>
        <time>2000-01-01T02:00:33.000Z</time>
      </trkpt>
      <trkpt lat="45.14515" lon="2.76796">
        <ele>1118.1</ele>
        <time>2000-01-01T02:00:43.000Z</time>
      </trkpt>
      <trkpt lat="45.14523" lon="2.768">
        <ele>1116</ele>
        <time>2000-01-01T02:00:53.000Z</time>
      </trkpt>
      <trkpt lat="45.1453" lon="2.76805">
        <ele>1117.3</ele>
        <time>2000-01-01T02:01:03.000Z</time>
      </trkpt>
      <trkpt lat="45.14539" lon="2.76813">
        <ele>1117</ele>
        <time>2000-01-01T02:01:13.000Z</time>
      </trkpt>
      <trkpt lat="45.14554" lon="2.76826">
        <ele>1115.5</ele>
        <time>2000-01-01T02:01:23.000Z</time>
      </trkpt>
      <trkpt lat="45.14562" lon="2.76832">
        <ele>1116.6</ele>
        <time>2000-01-01T02:01:33.000Z</time>
      </trkpt>
      <trkpt lat="45.14583" lon="2.76847">
        <ele>1115</ele>
        <time>2000-01-01T02:01:43.000Z</time>
      </trkpt>
      <trkpt lat="45.14599" lon="2.76855">
        <ele>1114.5</ele>
        <time>2000-01-01T02:01:53.000Z</time>
      </trkpt>
      <trkpt lat="45.14618" lon="2.76863">
        <ele>1113</ele>
        <time>2000-01-01T02:02:03.000Z</time>
      </trkpt>
      <trkpt lat="45.14637" lon="2.76873">
        <ele>1112</ele>
        <time>2000-01-01T02:02:13.000Z</time>
      </trkpt>
      <trkpt lat="45.14654" lon="2.76883">
        <ele>1111.1</ele>
        <time>2000-01-01T02:02:23.000Z</time>
      </trkpt>
      <trkpt lat="45.14671" lon="2.76902">
        <ele>1111</ele>
        <time>2000-01-01T02:02:33.000Z</time>
      </trkpt>
      <trkpt lat="45.14676" lon="2.76909">
        <ele>1107.8</ele>
        <time>2000-01-01T02:02:43.000Z</time>
      </trkpt>
      <trkpt lat="45.1468" lon="2.76917">
        <ele>1107</ele>
        <time>2000-01-01T02:02:53.000Z</time>
      </trkpt>
      <trkpt lat="45.14683" lon="2.76926">
        <ele>1107</ele>
        <time>2000-01-01T02:03:03.000Z</time>
      </trkpt>
      <trkpt lat="45.14687" lon="2.76941">
        <ele>1104.8</ele>
        <time>2000-01-01T02:03:13.000Z</time>
      </trkpt>
      <trkpt lat="45.14693" lon="2.76958">
        <ele>1104</ele>
        <time>2000-01-01T02:03:23.000Z</time>
      </trkpt>
      <trkpt lat="45.14704" lon="2.76988">
        <ele>1101</ele>
        <time>2000-01-01T02:03:33.000Z</time>
      </trkpt>
      <trkpt lat="45.14709" lon="2.76994">
        <ele>1100</ele>
        <time>2000-01-01T02:03:43.000Z</time>
      </trkpt>
      <trkpt lat="45.14714" lon="2.77">
        <ele>1099.3</ele>
        <time>2000-01-01T02:03:53.000Z</time>
      </trkpt>
      <trkpt lat="45.14726" lon="2.7701">
        <ele>1099</ele>
        <time>2000-01-01T02:04:03.000Z</time>
      </trkpt>
      <trkpt lat="45.14747" lon="2.77029">
        <ele>1097</ele>
        <time>2000-01-01T02:04:13.000Z</time>
      </trkpt>
      <trkpt lat="45.14756" lon="2.77036">
        <ele>1098.4</ele>
        <time>2000-01-01T02:04:23.000Z</time>
      </trkpt>
      <trkpt lat="45.14776" lon="2.76996">
        <ele>1097</ele>
        <time>2000-01-01T02:04:33.000Z</time>
      </trkpt>
      <trkpt lat="45.14793" lon="2.76956">
        <ele>1100</ele>
        <time>2000-01-01T02:04:43.000Z</time>
      </trkpt>
      <trkpt lat="45.1479" lon="2.76931">
        <ele>1105.5</ele>
        <time>2000-01-01T02:04:53.000Z</time>
      </trkpt>
      <trkpt lat="45.148" lon="2.76907">
        <ele>1101</ele>
        <time>2000-01-01T02:05:03.000Z</time>
      </trkpt>
      <trkpt lat="45.14799" lon="2.76874">
        <ele>1105</ele>
        <time>2000-01-01T02:05:13.000Z</time>
      </trkpt>
      <trkpt lat="45.14816" lon="2.76846">
        <ele>1108</ele>
        <time>2000-01-01T02:05:23.000Z</time>
      </trkpt>
      <trkpt lat="45.14812" lon="2.768">
        <ele>1113</ele>
        <time>2000-01-01T02:05:33.000Z</time>
      </trkpt>
      <trkpt lat="45.14832" lon="2.76796">
        <ele>1117</ele>
        <time>2000-01-01T02:05:43.000Z</time>
      </trkpt>
      <trkpt lat="45.14852" lon="2.76785">
        <ele>1118</ele>
        <time>2000-01-01T02:05:53.000Z</time>
      </trkpt>
      <trkpt lat="45.14877" lon="2.76824">
        <ele>1122</ele>
        <time>2000-01-01T02:06:03.000Z</time>
      </trkpt>
      <trkpt lat="45.14897" lon="2.76859">
        <ele>1128</ele>
        <time>2000-01-01T02:06:13.000Z</time>
      </trkpt>
      <trkpt lat="45.14909" lon="2.76896">
        <ele>1134</ele>
        <time>2000-01-01T02:06:23.000Z</time>
      </trkpt>
      <trkpt lat="45.14925" lon="2.76927">
        <ele>1135</ele>
        <time>2000-01-01T02:06:33.000Z</time>
      </trkpt>
      <trkpt lat="45.14942" lon="2.76943">
        <ele>1136</ele>
        <time>2000-01-01T02:06:43.000Z</time>
      </trkpt>
      <trkpt lat="45.14962" lon="2.76914">
        <ele>1139</ele>
        <time>2000-01-01T02:06:53.000Z</time>
      </trkpt>
      <trkpt lat="45.14979" lon="2.76867">
        <ele>1150</ele>
        <time>2000-01-01T02:07:03.000Z</time>
      </trkpt>
      <trkpt lat="45.15003" lon="2.76848">
        <ele>1159</ele>
        <time>2000-01-01T02:07:13.000Z</time>
      </trkpt>
      <trkpt lat="45.15026" lon="2.7683">
        <ele>1167</ele>
        <time>2000-01-01T02:07:23.000Z</time>
      </trkpt>
      <trkpt lat="45.15047" lon="2.76794">
        <ele>1177</ele>
        <time>2000-01-01T02:07:33.000Z</time>
      </trkpt>
      <trkpt lat="45.15051" lon="2.76776">
        <ele>1187.3</ele>
        <time>2000-01-01T02:07:43.000Z</time>
      </trkpt>
      <trkpt lat="45.15062" lon="2.76755">
        <ele>1185</ele>
        <time>2000-01-01T02:07:53.000Z</time>
      </trkpt>
      <trkpt lat="45.15075" lon="2.7674">
        <ele>1195.2</ele>
        <time>2000-01-01T02:08:03.000Z</time>
      </trkpt>
      <trkpt lat="45.1508" lon="2.76732">
        <ele>1190</ele>
        <time>2000-01-01T02:08:13.000Z</time>
      </trkpt>
      <trkpt lat="45.15085" lon="2.76724">
        <ele>1198.6</ele>
        <time>2000-01-01T02:08:23.000Z</time>
      </trkpt>
      <trkpt lat="45.15098" lon="2.76711">
        <ele>1196</ele>
        <time>2000-01-01T02:08:33.000Z</time>
      </trkpt>
      <trkpt lat="45.15116" lon="2.76693">
        <ele>1204</ele>
        <time>2000-01-01T02:08:43.000Z</time>
      </trkpt>
      <trkpt lat="45.15126" lon="2.76682">
        <ele>1213.4</ele>
        <time>2000-01-01T02:08:53.000Z</time>
      </trkpt>
      <trkpt lat="45.15143" lon="2.76654">
        <ele>1210</ele>
        <time>2000-01-01T02:09:03.000Z</time>
      </trkpt>
      <trkpt lat="45.15159" lon="2.76629">
        <ele>1218</ele>
        <time>2000-01-01T02:09:13.000Z</time>
      </trkpt>
      <trkpt lat="45.15167" lon="2.76615">
        <ele>1223.4</ele>
        <time>2000-01-01T02:09:23.000Z</time>
      </trkpt>
      <trkpt lat="45.15171" lon="2.76606">
        <ele>1223</ele>
        <time>2000-01-01T02:09:33.000Z</time>
      </trkpt>
      <trkpt lat="45.15174" lon="2.76595">
        <ele>1224.1</ele>
        <time>2000-01-01T02:09:43.000Z</time>
      </trkpt>
      <trkpt lat="45.15176" lon="2.76585">
        <ele>1223.8</ele>
        <time>2000-01-01T02:09:53.000Z</time>
      </trkpt>
      <trkpt lat="45.15179" lon="2.7658">
        <ele>1224.5</ele>
        <time>2000-01-01T02:10:03.000Z</time>
      </trkpt>
      <trkpt lat="45.15183" lon="2.76575">
        <ele>1224.9</ele>
        <time>2000-01-01T02:10:13.000Z</time>
      </trkpt>
      <trkpt lat="45.15187" lon="2.7657">
        <ele>1225.5</ele>
        <time>2000-01-01T02:10:23.000Z</time>
      </trkpt>
      <trkpt lat="45.15196" lon="2.76557">
        <ele>1226</ele>
        <time>2000-01-01T02:10:33.000Z</time>
      </trkpt>
      <trkpt lat="45.15207" lon="2.7654">
        <ele>1229.9</ele>
        <time>2000-01-01T02:10:43.000Z</time>
      </trkpt>
      <trkpt lat="45.15216" lon="2.76532">
        <ele>1230</ele>
        <time>2000-01-01T02:10:53.000Z</time>
      </trkpt>
      <trkpt lat="45.15222" lon="2.76522">
        <ele>1234.7</ele>
        <time>2000-01-01T02:11:03.000Z</time>
      </trkpt>
      <trkpt lat="45.15237" lon="2.76493">
        <ele>1236</ele>
        <time>2000-01-01T02:11:13.000Z</time>
      </trkpt>
      <trkpt lat="45.15249" lon="2.76471">
        <ele>1242</ele>
        <time>2000-01-01T02:11:23.000Z</time>
      </trkpt>
      <trkpt lat="45.15267" lon="2.76447">
        <ele>1246</ele>
        <time>2000-01-01T02:11:33.000Z</time>
      </trkpt>
      <trkpt lat="45.15284" lon="2.76424">
        <ele>1250</ele>
        <time>2000-01-01T02:11:43.000Z</time>
      </trkpt>
      <trkpt lat="45.15295" lon="2.76413">
        <ele>1255.2</ele>
        <time>2000-01-01T02:11:53.000Z</time>
      </trkpt>
      <trkpt lat="45.15308" lon="2.76402">
        <ele>1254</ele>
        <time>2000-01-01T02:12:03.000Z</time>
      </trkpt>
      <trkpt lat="45.15327" lon="2.76388">
        <ele>1259</ele>
        <time>2000-01-01T02:12:13.000Z</time>
      </trkpt>
      <trkpt lat="45.15344" lon="2.7637">
        <ele>1262</ele>
        <time>2000-01-01T02:12:23.000Z</time>
      </trkpt>
      <trkpt lat="45.15359" lon="2.76357">
        <ele>1262.4</ele>
        <time>2000-01-01T02:12:33.000Z</time>
      </trkpt>
      <trkpt lat="45.15366" lon="2.7635">
        <ele>1262</ele>
        <time>2000-01-01T02:12:43.000Z</time>
      </trkpt>
      <trkpt lat="45.15368" lon="2.76348">
        <ele>1264.3</ele>
        <time>2000-01-01T02:12:53.000Z</time>
      </trkpt>
      <trkpt lat="45.15374" lon="2.76341">
        <ele>1265.5</ele>
        <time>2000-01-01T02:13:03.000Z</time>
      </trkpt>
      <trkpt lat="45.15378" lon="2.76339">
        <ele>1266.5</ele>
        <time>2000-01-01T02:13:13.000Z</time>
      </trkpt>
      <trkpt lat="45.15381" lon="2.76338">
        <ele>1267.2</ele>
        <time>2000-01-01T02:13:23.000Z</time>
      </trkpt>
      <trkpt lat="45.15384" lon="2.76338">
        <ele>1265</ele>
        <time>2000-01-01T02:13:33.000Z</time>
      </trkpt>
      <trkpt lat="45.15392" lon="2.76343">
        <ele>1270.1</ele>
        <time>2000-01-01T02:13:43.000Z</time>
      </trkpt>
      <trkpt lat="45.15405" lon="2.76349">
        <ele>1268</ele>
        <time>2000-01-01T02:13:53.000Z</time>
      </trkpt>
      <trkpt lat="45.15416" lon="2.76353">
        <ele>1276.3</ele>
        <time>2000-01-01T02:14:03.000Z</time>
      </trkpt>
      <trkpt lat="45.15421" lon="2.76353">
        <ele>1278</ele>
        <time>2000-01-01T02:14:13.000Z</time>
      </trkpt>
      <trkpt lat="45.15427" lon="2.76349">
        <ele>1274</ele>
        <time>2000-01-01T02:14:23.000Z</time>
      </trkpt>
      <trkpt lat="45.15433" lon="2.76343">
        <ele>1281.6</ele>
        <time>2000-01-01T02:14:33.000Z</time>
      </trkpt>
      <trkpt lat="45.15441" lon="2.76334">
        <ele>1283.8</ele>
        <time>2000-01-01T02:14:43.000Z</time>
      </trkpt>
      <trkpt lat="45.1545" lon="2.76323">
        <ele>1280</ele>
        <time>2000-01-01T02:14:53.000Z</time>
      </trkpt>
      <trkpt lat="45.15458" lon="2.76316">
        <ele>1286.8</ele>
        <time>2000-01-01T02:15:03.000Z</time>
      </trkpt>
      <trkpt lat="45.15466" lon="2.76306">
        <ele>1286</ele>
        <time>2000-01-01T02:15:13.000Z</time>
      </trkpt>
      <trkpt lat="45.15483" lon="2.76282">
        <ele>1289</ele>
        <time>2000-01-01T02:15:23.000Z</time>
      </trkpt>
      <trkpt lat="45.15496" lon="2.76265">
        <ele>1294.4</ele>
        <time>2000-01-01T02:15:33.000Z</time>
      </trkpt>
      <trkpt lat="45.15506" lon="2.76251">
        <ele>1293</ele>
        <time>2000-01-01T02:15:43.000Z</time>
      </trkpt>
      <trkpt lat="45.15515" lon="2.76244">
        <ele>1299.8</ele>
        <time>2000-01-01T02:15:53.000Z</time>
      </trkpt>
      <trkpt lat="45.15532" lon="2.76234">
        <ele>1300</ele>
        <time>2000-01-01T02:16:03.000Z</time>
      </trkpt>
      <trkpt lat="45.15544" lon="2.76227">
        <ele>1309.6</ele>
        <time>2000-01-01T02:16:13.000Z</time>
      </trkpt>
      <trkpt lat="45.1555" lon="2.76226">
        <ele>1311.6</ele>
        <time>2000-01-01T02:16:23.000Z</time>
      </trkpt>
      <trkpt lat="45.1556" lon="2.76226">
        <ele>1308</ele>
        <time>2000-01-01T02:16:33.000Z</time>
      </trkpt>
      <trkpt lat="45.15565" lon="2.76226">
        <ele>1317</ele>
        <time>2000-01-01T02:16:43.000Z</time>
      </trkpt>
      <trkpt lat="45.15568" lon="2.76224">
        <ele>1317.8</ele>
        <time>2000-01-01T02:16:53.000Z</time>
      </trkpt>
      <trkpt lat="45.1557" lon="2.76221">
        <ele>1318.1</ele>
        <time>2000-01-01T02:17:03.000Z</time>
      </trkpt>
      <trkpt lat="45.15578" lon="2.76205">
        <ele>1316</ele>
        <time>2000-01-01T02:17:13.000Z</time>
      </trkpt>
      <trkpt lat="45.15586" lon="2.76191">
        <ele>1322.9</ele>
        <time>2000-01-01T02:17:23.000Z</time>
      </trkpt>
      <trkpt lat="45.15597" lon="2.76174">
        <ele>1319</ele>
        <time>2000-01-01T02:17:33.000Z</time>
      </trkpt>
      <trkpt lat="45.15601" lon="2.76167">
        <ele>1327.4</ele>
        <time>2000-01-01T02:17:43.000Z</time>
      </trkpt>
      <trkpt lat="45.15603" lon="2.76163">
        <ele>1328</ele>
        <time>2000-01-01T02:17:53.000Z</time>
      </trkpt>
      <trkpt lat="45.15605" lon="2.76166">
        <ele>1328.5</ele>
        <time>2000-01-01T02:18:03.000Z</time>
      </trkpt>
      <trkpt lat="45.15605" lon="2.76166">
        <ele>1328.5</ele>
        <time>2000-01-01T02:18:13.000Z</time>
      </trkpt>
      <trkpt lat="45.15603" lon="2.76163">
        <ele>1328</ele>
        <time>2000-01-01T02:18:23.000Z</time>
      </trkpt>
      <trkpt lat="45.15607" lon="2.76157">
        <ele>1325</ele>
        <time>2000-01-01T02:18:33.000Z</time>
      </trkpt>
      <trkpt lat="45.15611" lon="2.76159">
        <ele>1330</ele>
        <time>2000-01-01T02:18:43.000Z</time>
      </trkpt>
      <trkpt lat="45.15619" lon="2.76165">
        <ele>1331.1</ele>
        <time>2000-01-01T02:18:53.000Z</time>
      </trkpt>
      <trkpt lat="45.15632" lon="2.76175">
        <ele>1328</ele>
        <time>2000-01-01T02:19:03.000Z</time>
      </trkpt>
      <trkpt lat="45.15641" lon="2.7618">
        <ele>1334.3</ele>
        <time>2000-01-01T02:19:13.000Z</time>
      </trkpt>
      <trkpt lat="45.15646" lon="2.76182">
        <ele>1335.2</ele>
        <time>2000-01-01T02:19:23.000Z</time>
      </trkpt>
      <trkpt lat="45.15651" lon="2.76187">
        <ele>1333</ele>
        <time>2000-01-01T02:19:33.000Z</time>
      </trkpt>
      <trkpt lat="45.15656" lon="2.76193">
        <ele>1337</ele>
        <time>2000-01-01T02:19:43.000Z</time>
      </trkpt>
      <trkpt lat="45.15663" lon="2.762">
        <ele>1338.4</ele>
        <time>2000-01-01T02:19:53.000Z</time>
      </trkpt>
      <trkpt lat="45.15667" lon="2.76202">
        <ele>1336</ele>
        <time>2000-01-01T02:20:03.000Z</time>
      </trkpt>
      <trkpt lat="45.15672" lon="2.76208">
        <ele>1340</ele>
        <time>2000-01-01T02:20:13.000Z</time>
      </trkpt>
      <trkpt lat="45.1568" lon="2.76216">
        <ele>1341.4</ele>
        <time>2000-01-01T02:20:23.000Z</time>
      </trkpt>
      <trkpt lat="45.15685" lon="2.76223">
        <ele>1338</ele>
        <time>2000-01-01T02:20:33.000Z</time>
      </trkpt>
      <trkpt lat="45.15691" lon="2.76228">
        <ele>1343.4</ele>
        <time>2000-01-01T02:20:43.000Z</time>
      </trkpt>
      <trkpt lat="45.15704" lon="2.76235">
        <ele>1342</ele>
        <time>2000-01-01T02:20:53.000Z</time>
      </trkpt>
      <trkpt lat="45.1571" lon="2.76239">
        <ele>1346.2</ele>
        <time>2000-01-01T02:21:03.000Z</time>
      </trkpt>
      <trkpt lat="45.15717" lon="2.76243">
        <ele>1347.2</ele>
        <time>2000-01-01T02:21:13.000Z</time>
      </trkpt>
      <trkpt lat="45.15722" lon="2.76245">
        <ele>1346</ele>
        <time>2000-01-01T02:21:23.000Z</time>
      </trkpt>
      <trkpt lat="45.15727" lon="2.76246">
        <ele>1349.1</ele>
        <time>2000-01-01T02:21:33.000Z</time>
      </trkpt>
      <trkpt lat="45.15736" lon="2.76247">
        <ele>1351</ele>
        <time>2000-01-01T02:21:43.000Z</time>
      </trkpt>
      <trkpt lat="45.15743" lon="2.76248">
        <ele>1349</ele>
        <time>2000-01-01T02:21:53.000Z</time>
      </trkpt>
      <trkpt lat="45.15745" lon="2.76249">
        <ele>1352.9</ele>
        <time>2000-01-01T02:22:03.000Z</time>
      </trkpt>
      <trkpt lat="45.15756" lon="2.76253">
        <ele>1355.1</ele>
        <time>2000-01-01T02:22:13.000Z</time>
      </trkpt>
      <trkpt lat="45.15767" lon="2.76259">
        <ele>1352</ele>
        <time>2000-01-01T02:22:23.000Z</time>
      </trkpt>
      <trkpt lat="45.15777" lon="2.76264">
        <ele>1358.9</ele>
        <time>2000-01-01T02:22:33.000Z</time>
      </trkpt>
      <trkpt lat="45.15787" lon="2.76266">
        <ele>1356</ele>
        <time>2000-01-01T02:22:43.000Z</time>
      </trkpt>
      <trkpt lat="45.15802" lon="2.76272">
        <ele>1362.5</ele>
        <time>2000-01-01T02:22:53.000Z</time>
      </trkpt>
      <trkpt lat="45.15812" lon="2.76282">
        <ele>1360</ele>
        <time>2000-01-01T02:23:03.000Z</time>
      </trkpt>
      <trkpt lat="45.15819" lon="2.76288">
        <ele>1366.6</ele>
        <time>2000-01-01T02:23:13.000Z</time>
      </trkpt>
      <trkpt lat="45.15824" lon="2.76293">
        <ele>1367.8</ele>
        <time>2000-01-01T02:23:23.000Z</time>
      </trkpt>
      <trkpt lat="45.15829" lon="2.763">
        <ele>1365</ele>
        <time>2000-01-01T02:23:33.000Z</time>
      </trkpt>
      <trkpt lat="45.15835" lon="2.76311">
        <ele>1370.3</ele>
        <time>2000-01-01T02:23:43.000Z</time>
      </trkpt>
      <trkpt lat="45.15843" lon="2.76326">
        <ele>1368</ele>
        <time>2000-01-01T02:23:53.000Z</time>
      </trkpt>
      <trkpt lat="45.1585" lon="2.76343">
        <ele>1373</ele>
        <time>2000-01-01T02:24:03.000Z</time>
      </trkpt>
      <trkpt lat="45.15853" lon="2.76348">
        <ele>1370</ele>
        <time>2000-01-01T02:24:13.000Z</time>
      </trkpt>
      <trkpt lat="45.15859" lon="2.76352">
        <ele>1374.6</ele>
        <time>2000-01-01T02:24:23.000Z</time>
      </trkpt>
      <trkpt lat="45.15863" lon="2.76354">
        <ele>1375.3</ele>
        <time>2000-01-01T02:24:33.000Z</time>
      </trkpt>
      <trkpt lat="45.15867" lon="2.76355">
        <ele>1375.8</ele>
        <time>2000-01-01T02:24:43.000Z</time>
      </trkpt>
      <trkpt lat="45.15874" lon="2.76353">
        <ele>1373</ele>
        <time>2000-01-01T02:24:53.000Z</time>
      </trkpt>
      <trkpt lat="45.15875" lon="2.76353">
        <ele>1377</ele>
        <time>2000-01-01T02:25:03.000Z</time>
      </trkpt>
      <trkpt lat="45.15878" lon="2.76352">
        <ele>1377.4</ele>
        <time>2000-01-01T02:25:13.000Z</time>
      </trkpt>
      <trkpt lat="45.15882" lon="2.76349">
        <ele>1378</ele>
        <time>2000-01-01T02:25:23.000Z</time>
      </trkpt>
      <trkpt lat="45.15885" lon="2.76349">
        <ele>1378.4</ele>
        <time>2000-01-01T02:25:33.000Z</time>
      </trkpt>
      <trkpt lat="45.15889" lon="2.7635">
        <ele>1379</ele>
        <time>2000-01-01T02:25:43.000Z</time>
      </trkpt>
      <trkpt lat="45.15901" lon="2.76355">
        <ele>1376</ele>
        <time>2000-01-01T02:25:53.000Z</time>
      </trkpt>
      <trkpt lat="45.15906" lon="2.76358">
        <ele>1381.6</ele>
        <time>2000-01-01T02:26:03.000Z</time>
      </trkpt>
      <trkpt lat="45.15914" lon="2.76358">
        <ele>1382.8</ele>
        <time>2000-01-01T02:26:13.000Z</time>
      </trkpt>
      <trkpt lat="45.15919" lon="2.76359">
        <ele>1383.6</ele>
        <time>2000-01-01T02:26:23.000Z</time>
      </trkpt>
      <trkpt lat="45.15924" lon="2.76363">
        <ele>1380</ele>
        <time>2000-01-01T02:26:33.000Z</time>
      </trkpt>
      <trkpt lat="45.15933" lon="2.76369">
        <ele>1385.8</ele>
        <time>2000-01-01T02:26:43.000Z</time>
      </trkpt>
      <trkpt lat="45.15941" lon="2.76371">
        <ele>1387.1</ele>
        <time>2000-01-01T02:26:53.000Z</time>
      </trkpt>
      <trkpt lat="45.15946" lon="2.76371">
        <ele>1384</ele>
        <time>2000-01-01T02:27:03.000Z</time>
      </trkpt>
      <trkpt lat="45.15953" lon="2.76373">
        <ele>1388.5</ele>
        <time>2000-01-01T02:27:13.000Z</time>
      </trkpt>
      <trkpt lat="45.15961" lon="2.76378">
        <ele>1389.2</ele>
        <time>2000-01-01T02:27:23.000Z</time>
      </trkpt>
      <trkpt lat="45.15968" lon="2.76378">
        <ele>1387</ele>
        <time>2000-01-01T02:27:33.000Z</time>
      </trkpt>
      <trkpt lat="45.15975" lon="2.76378">
        <ele>1390.9</ele>
        <time>2000-01-01T02:27:43.000Z</time>
      </trkpt>
      <trkpt lat="45.15985" lon="2.76378">
        <ele>1392.5</ele>
        <time>2000-01-01T02:27:53.000Z</time>
      </trkpt>
      <trkpt lat="45.1599" lon="2.76381">
        <ele>1390</ele>
        <time>2000-01-01T02:28:03.000Z</time>
      </trkpt>
      <trkpt lat="45.16005" lon="2.7639">
        <ele>1395.8</ele>
        <time>2000-01-01T02:28:13.000Z</time>
      </trkpt>
      <trkpt lat="45.16018" lon="2.76397">
        <ele>1394</ele>
        <time>2000-01-01T02:28:23.000Z</time>
      </trkpt>
      <trkpt lat="45.16025" lon="2.764">
        <ele>1399</ele>
        <time>2000-01-01T02:28:33.000Z</time>
      </trkpt>
      <trkpt lat="45.16035" lon="2.76401">
        <ele>1400.1</ele>
        <time>2000-01-01T02:28:43.000Z</time>
      </trkpt>
      <trkpt lat="45.16045" lon="2.76401">
        <ele>1397</ele>
        <time>2000-01-01T02:28:53.000Z</time>
      </trkpt>
      <trkpt lat="45.16057" lon="2.76402">
        <ele>1402.1</ele>
        <time>2000-01-01T02:29:03.000Z</time>
      </trkpt>
      <trkpt lat="45.16074" lon="2.76405">
        <ele>1399</ele>
        <time>2000-01-01T02:29:13.000Z</time>
      </trkpt>
      <trkpt lat="45.16086" lon="2.76406">
        <ele>1403.1</ele>
        <time>2000-01-01T02:29:23.000Z</time>
      </trkpt>
      <trkpt lat="45.16102" lon="2.76408">
        <ele>1402</ele>
        <time>2000-01-01T02:29:33.000Z</time>
      </trkpt>
      <trkpt lat="45.16117" lon="2.7641">
        <ele>1403.8</ele>
        <time>2000-01-01T02:29:43.000Z</time>
      </trkpt>
      <trkpt lat="45.16133" lon="2.76411">
        <ele>1403</ele>
        <time>2000-01-01T02:29:53.000Z</time>
      </trkpt>
      <trkpt lat="45.16145" lon="2.76413">
        <ele>1404.4</ele>
        <time>2000-01-01T02:30:03.000Z</time>
      </trkpt>
      <trkpt lat="45.16151" lon="2.76413">
        <ele>1404.8</ele>
        <time>2000-01-01T02:30:13.000Z</time>
      </trkpt>
      <trkpt lat="45.16157" lon="2.7641">
        <ele>1404</ele>
        <time>2000-01-01T02:30:23.000Z</time>
      </trkpt>
      <trkpt lat="45.16162" lon="2.76409">
        <ele>1405.4</ele>
        <time>2000-01-01T02:30:33.000Z</time>
      </trkpt>
      <trkpt lat="45.16171" lon="2.76409">
        <ele>1405.9</ele>
        <time>2000-01-01T02:30:43.000Z</time>
      </trkpt>
      <trkpt lat="45.16186" lon="2.76416">
        <ele>1405</ele>
        <time>2000-01-01T02:30:53.000Z</time>
      </trkpt>
      <trkpt lat="45.16187" lon="2.76416">
        <ele>1406.7</ele>
        <time>2000-01-01T02:31:03.000Z</time>
      </trkpt>
      <trkpt lat="45.16186" lon="2.7642">
        <ele>1406.8</ele>
        <time>2000-01-01T02:31:13.000Z</time>
      </trkpt>
      <trkpt lat="45.16186" lon="2.7642">
        <ele>1406.8</ele>
        <time>2000-01-01T02:31:23.000Z</time>
      </trkpt>
      <trkpt lat="45.16187" lon="2.76416">
        <ele>1406.7</ele>
        <time>2000-01-01T02:31:33.000Z</time>
      </trkpt>
      <trkpt lat="45.16204" lon="2.76424">
        <ele>1406</ele>
        <time>2000-01-01T02:31:43.000Z</time>
      </trkpt>
      <trkpt lat="45.16226" lon="2.76435">
        <ele>1406</ele>
        <time>2000-01-01T02:31:53.000Z</time>
      </trkpt>
      <trkpt lat="45.16247" lon="2.76446">
        <ele>1407</ele>
        <time>2000-01-01T02:32:03.000Z</time>
      </trkpt>
      <trkpt lat="45.16264" lon="2.76456">
        <ele>1406.6</ele>
        <time>2000-01-01T02:32:13.000Z</time>
      </trkpt>
      <trkpt lat="45.16276" lon="2.76464">
        <ele>1407</ele>
        <time>2000-01-01T02:32:23.000Z</time>
      </trkpt>
      <trkpt lat="45.16288" lon="2.76469">
        <ele>1406.1</ele>
        <time>2000-01-01T02:32:33.000Z</time>
      </trkpt>
      <trkpt lat="45.16305" lon="2.76474">
        <ele>1407</ele>
        <time>2000-01-01T02:32:43.000Z</time>
      </trkpt>
      <trkpt lat="45.16317" lon="2.76478">
        <ele>1404.7</ele>
        <time>2000-01-01T02:32:53.000Z</time>
      </trkpt>
      <trkpt lat="45.16331" lon="2.76479">
        <ele>1406</ele>
        <time>2000-01-01T02:33:03.000Z</time>
      </trkpt>
      <trkpt lat="45.16345" lon="2.76481">
        <ele>1403.3</ele>
        <time>2000-01-01T02:33:13.000Z</time>
      </trkpt>
      <trkpt lat="45.16358" lon="2.76483">
        <ele>1405</ele>
        <time>2000-01-01T02:33:23.000Z</time>
      </trkpt>
      <trkpt lat="45.16365" lon="2.76483">
        <ele>1402.4</ele>
        <time>2000-01-01T02:33:33.000Z</time>
      </trkpt>
      <trkpt lat="45.16369" lon="2.76484">
        <ele>1402.4</ele>
        <time>2000-01-01T02:33:43.000Z</time>
      </trkpt>
      <trkpt lat="45.16376" lon="2.76485">
        <ele>1402.5</ele>
        <time>2000-01-01T02:33:53.000Z</time>
      </trkpt>
      <trkpt lat="45.16381" lon="2.76486">
        <ele>1403</ele>
        <time>2000-01-01T02:34:03.000Z</time>
      </trkpt>
      <trkpt lat="45.16391" lon="2.7649">
        <ele>1402.6</ele>
        <time>2000-01-01T02:34:13.000Z</time>
      </trkpt>
      <trkpt lat="45.16402" lon="2.76497">
        <ele>1402</ele>
        <time>2000-01-01T02:34:23.000Z</time>
      </trkpt>
      <trkpt lat="45.16418" lon="2.76506">
        <ele>1402.2</ele>
        <time>2000-01-01T02:34:33.000Z</time>
      </trkpt>
      <trkpt lat="45.16427" lon="2.76511">
        <ele>1402</ele>
        <time>2000-01-01T02:34:43.000Z</time>
      </trkpt>
      <trkpt lat="45.16441" lon="2.7652">
        <ele>1401.8</ele>
        <time>2000-01-01T02:34:53.000Z</time>
      </trkpt>
      <trkpt lat="45.16459" lon="2.76533">
        <ele>1401</ele>
        <time>2000-01-01T02:35:03.000Z</time>
      </trkpt>
      <trkpt lat="45.16475" lon="2.76545">
        <ele>1400.8</ele>
        <time>2000-01-01T02:35:13.000Z</time>
      </trkpt>
      <trkpt lat="45.16488" lon="2.76556">
        <ele>1400</ele>
        <time>2000-01-01T02:35:23.000Z</time>
      </trkpt>
      <trkpt lat="45.16497" lon="2.76563">
        <ele>1399.2</ele>
        <time>2000-01-01T02:35:33.000Z</time>
      </trkpt>
      <trkpt lat="45.16515" lon="2.76581">
        <ele>1399</ele>
        <time>2000-01-01T02:35:43.000Z</time>
      </trkpt>
      <trkpt lat="45.16531" lon="2.76597">
        <ele>1396</ele>
        <time>2000-01-01T02:35:53.000Z</time>
      </trkpt>
      <trkpt lat="45.16543" lon="2.76612">
        <ele>1394.3</ele>
        <time>2000-01-01T02:36:03.000Z</time>
      </trkpt>
      <trkpt lat="45.16551" lon="2.76625">
        <ele>1395</ele>
        <time>2000-01-01T02:36:13.000Z</time>
      </trkpt>
      <trkpt lat="45.16556" lon="2.76635">
        <ele>1392.1</ele>
        <time>2000-01-01T02:36:23.000Z</time>
      </trkpt>
      <trkpt lat="45.16562" lon="2.76645">
        <ele>1390.9</ele>
        <time>2000-01-01T02:36:33.000Z</time>
      </trkpt>
      <trkpt lat="45.16572" lon="2.76658">
        <ele>1393</ele>
        <time>2000-01-01T02:36:43.000Z</time>
      </trkpt>
      <trkpt lat="45.16581" lon="2.76671">
        <ele>1388.2</ele>
        <time>2000-01-01T02:36:53.000Z</time>
      </trkpt>
      <trkpt lat="45.16583" lon="2.76675">
        <ele>1388</ele>
        <time>2000-01-01T02:37:03.000Z</time>
      </trkpt>
      <trkpt lat="45.16587" lon="2.76685">
        <ele>1389</ele>
        <time>2000-01-01T02:37:13.000Z</time>
      </trkpt>
      <trkpt lat="45.16591" lon="2.76698">
        <ele>1387.5</ele>
        <time>2000-01-01T02:37:23.000Z</time>
      </trkpt>
      <trkpt lat="45.16595" lon="2.76714">
        <ele>1387</ele>
        <time>2000-01-01T02:37:33.000Z</time>
      </trkpt>
      <trkpt lat="45.16597" lon="2.76731">
        <ele>1387.7</ele>
        <time>2000-01-01T02:37:43.000Z</time>
      </trkpt>
      <trkpt lat="45.16599" lon="2.76747">
        <ele>1387</ele>
        <time>2000-01-01T02:37:53.000Z</time>
      </trkpt>
      <trkpt lat="45.166" lon="2.76757">
        <ele>1387.8</ele>
        <time>2000-01-01T02:38:03.000Z</time>
      </trkpt>
      <trkpt lat="45.16602" lon="2.76769">
        <ele>1387.7</ele>
        <time>2000-01-01T02:38:13.000Z</time>
      </trkpt>
      <trkpt lat="45.16605" lon="2.7678">
        <ele>1387</ele>
        <time>2000-01-01T02:38:23.000Z</time>
      </trkpt>
      <trkpt lat="45.16608" lon="2.76791">
        <ele>1386.3</ele>
        <time>2000-01-01T02:38:33.000Z</time>
      </trkpt>
      <trkpt lat="45.16611" lon="2.76803">
        <ele>1385.2</ele>
        <time>2000-01-01T02:38:43.000Z</time>
      </trkpt>
      <trkpt lat="45.16616" lon="2.76822">
        <ele>1387</ele>
        <time>2000-01-01T02:38:53.000Z</time>
      </trkpt>
      <trkpt lat="45.16623" lon="2.76847">
        <ele>1383</ele>
        <time>2000-01-01T02:39:03.000Z</time>
      </trkpt>
      <trkpt lat="45.16631" lon="2.76868">
        <ele>1378.1</ele>
        <time>2000-01-01T02:39:13.000Z</time>
      </trkpt>
      <trkpt lat="45.16639" lon="2.76884">
        <ele>1379</ele>
        <time>2000-01-01T02:39:23.000Z</time>
      </trkpt>
      <trkpt lat="45.1665" lon="2.76906">
        <ele>1376</ele>
        <time>2000-01-01T02:39:33.000Z</time>
      </trkpt>
      <trkpt lat="45.16657" lon="2.76901">
        <ele>1374.3</ele>
        <time>2000-01-01T02:39:43.000Z</time>
      </trkpt>
      <trkpt lat="45.16658" lon="2.76898">
        <ele>1374.3</ele>
        <time>2000-01-01T02:39:53.000Z</time>
      </trkpt>
      <trkpt lat="45.16659" lon="2.76895">
        <ele>1374.3</ele>
        <time>2000-01-01T02:40:03.000Z</time>
      </trkpt>
      <trkpt lat="45.16663" lon="2.76883">
        <ele>1374</ele>
        <time>2000-01-01T02:40:13.000Z</time>
      </trkpt>
      <trkpt lat="45.16673" lon="2.76858">
        <ele>1374</ele>
        <time>2000-01-01T02:40:23.000Z</time>
      </trkpt>
      <trkpt lat="45.16679" lon="2.76838">
        <ele>1378.1</ele>
        <time>2000-01-01T02:40:33.000Z</time>
      </trkpt>
      <trkpt lat="45.16688" lon="2.7681">
        <ele>1376</ele>
        <time>2000-01-01T02:40:43.000Z</time>
      </trkpt>
      <trkpt lat="45.16696" lon="2.7678">
        <ele>1379</ele>
        <time>2000-01-01T02:40:53.000Z</time>
      </trkpt>
      <trkpt lat="45.16703" lon="2.76745">
        <ele>1379</ele>
        <time>2000-01-01T02:41:03.000Z</time>
      </trkpt>
      <trkpt lat="45.16709" lon="2.76722">
        <ele>1379</ele>
        <time>2000-01-01T02:41:13.000Z</time>
      </trkpt>
      <trkpt lat="45.16714" lon="2.767">
        <ele>1379</ele>
        <time>2000-01-01T02:41:23.000Z</time>
      </trkpt>
      <trkpt lat="45.1672" lon="2.76675">
        <ele>1378.2</ele>
        <time>2000-01-01T02:41:33.000Z</time>
      </trkpt>
      <trkpt lat="45.16723" lon="2.76646">
        <ele>1378</ele>
        <time>2000-01-01T02:41:43.000Z</time>
      </trkpt>
      <trkpt lat="45.16724" lon="2.7661">
        <ele>1378</ele>
        <time>2000-01-01T02:41:53.000Z</time>
      </trkpt>
      <trkpt lat="45.16728" lon="2.76575">
        <ele>1380</ele>
        <time>2000-01-01T02:42:03.000Z</time>
      </trkpt>
      <trkpt lat="45.16729" lon="2.76552">
        <ele>1380.2</ele>
        <time>2000-01-01T02:42:13.000Z</time>
      </trkpt>
      <trkpt lat="45.16728" lon="2.76543">
        <ele>1380</ele>
        <time>2000-01-01T02:42:23.000Z</time>
      </trkpt>
      <trkpt lat="45.16726" lon="2.76533">
        <ele>1379.9</ele>
        <time>2000-01-01T02:42:33.000Z</time>
      </trkpt>
      <trkpt lat="45.16723" lon="2.76518">
        <ele>1380</ele>
        <time>2000-01-01T02:42:43.000Z</time>
      </trkpt>
      <trkpt lat="45.16722" lon="2.76515">
        <ele>1380</ele>
        <time>2000-01-01T02:42:53.000Z</time>
      </trkpt>
      <trkpt lat="45.16723" lon="2.76511">
        <ele>1380</ele>
        <time>2000-01-01T02:43:03.000Z</time>
      </trkpt>
      <trkpt lat="45.16723" lon="2.76508">
        <ele>1380</ele>
        <time>2000-01-01T02:43:13.000Z</time>
      </trkpt>
      <trkpt lat="45.16723" lon="2.76508">
        <ele>1380</ele>
        <time>2000-01-01T02:43:23.000Z</time>
      </trkpt>
      <trkpt lat="45.16723" lon="2.76511">
        <ele>1380</ele>
        <time>2000-01-01T02:43:33.000Z</time>
      </trkpt>
      <trkpt lat="45.16724" lon="2.76505">
        <ele>1379.9</ele>
        <time>2000-01-01T02:43:43.000Z</time>
      </trkpt>
      <trkpt lat="45.16726" lon="2.76501">
        <ele>1379.9</ele>
        <time>2000-01-01T02:43:53.000Z</time>
      </trkpt>
      <trkpt lat="45.16728" lon="2.76493">
        <ele>1380.5</ele>
        <time>2000-01-01T02:44:03.000Z</time>
      </trkpt>
      <trkpt lat="45.16734" lon="2.76477">
        <ele>1380.9</ele>
        <time>2000-01-01T02:44:13.000Z</time>
      </trkpt>
      <trkpt lat="45.16738" lon="2.7646">
        <ele>1379.7</ele>
        <time>2000-01-01T02:44:23.000Z</time>
      </trkpt>
      <trkpt lat="45.16739" lon="2.76456">
        <ele>1380.6</ele>
        <time>2000-01-01T02:44:33.000Z</time>
      </trkpt>
      <trkpt lat="45.16741" lon="2.76451">
        <ele>1380.4</ele>
        <time>2000-01-01T02:44:43.000Z</time>
      </trkpt>
      <trkpt lat="45.16744" lon="2.76446">
        <ele>1380.2</ele>
        <time>2000-01-01T02:44:53.000Z</time>
      </trkpt>
      <trkpt lat="45.16753" lon="2.76436">
        <ele>1379.8</ele>
        <time>2000-01-01T02:45:03.000Z</time>
      </trkpt>
      <trkpt lat="45.1676" lon="2.76428">
        <ele>1381.2</ele>
        <time>2000-01-01T02:45:13.000Z</time>
      </trkpt>
      <trkpt lat="45.16766" lon="2.76404">
        <ele>1380</ele>
        <time>2000-01-01T02:45:23.000Z</time>
      </trkpt>
      <trkpt lat="45.16774" lon="2.76367">
        <ele>1383</ele>
        <time>2000-01-01T02:45:33.000Z</time>
      </trkpt>
      <trkpt lat="45.16778" lon="2.76337">
        <ele>1384</ele>
        <time>2000-01-01T02:45:43.000Z</time>
      </trkpt>
      <trkpt lat="45.1678" lon="2.76313">
        <ele>1384.9</ele>
        <time>2000-01-01T02:45:53.000Z</time>
      </trkpt>
      <trkpt lat="45.16779" lon="2.76273">
        <ele>1384</ele>
        <time>2000-01-01T02:46:03.000Z</time>
      </trkpt>
      <trkpt lat="45.16779" lon="2.76269">
        <ele>1386.3</ele>
        <time>2000-01-01T02:46:13.000Z</time>
      </trkpt>
      <trkpt lat="45.16782" lon="2.76268">
        <ele>1386.2</ele>
        <time>2000-01-01T02:46:23.000Z</time>
      </trkpt>
      <trkpt lat="45.16786" lon="2.76265">
        <ele>1386.2</ele>
        <time>2000-01-01T02:46:33.000Z</time>
      </trkpt>
      <trkpt lat="45.16792" lon="2.76257">
        <ele>1386.2</ele>
        <time>2000-01-01T02:46:43.000Z</time>
      </trkpt>
      <trkpt lat="45.16802" lon="2.76245">
        <ele>1385</ele>
        <time>2000-01-01T02:46:53.000Z</time>
      </trkpt>
      <trkpt lat="45.16805" lon="2.76242">
        <ele>1386.6</ele>
        <time>2000-01-01T02:47:03.000Z</time>
      </trkpt>
      <trkpt lat="45.16809" lon="2.76231">
        <ele>1387.2</ele>
        <time>2000-01-01T02:47:13.000Z</time>
      </trkpt>
      <trkpt lat="45.16818" lon="2.76212">
        <ele>1386</ele>
        <time>2000-01-01T02:47:23.000Z</time>
      </trkpt>
      <trkpt lat="45.16828" lon="2.76194">
        <ele>1389.2</ele>
        <time>2000-01-01T02:47:33.000Z</time>
      </trkpt>
      <trkpt lat="45.16839" lon="2.76178">
        <ele>1388</ele>
        <time>2000-01-01T02:47:43.000Z</time>
      </trkpt>
      <trkpt lat="45.16851" lon="2.76159">
        <ele>1391.7</ele>
        <time>2000-01-01T02:47:53.000Z</time>
      </trkpt>
      <trkpt lat="45.16864" lon="2.76139">
        <ele>1390</ele>
        <time>2000-01-01T02:48:03.000Z</time>
      </trkpt>
      <trkpt lat="45.16871" lon="2.76127">
        <ele>1392.5</ele>
        <time>2000-01-01T02:48:13.000Z</time>
      </trkpt>
      <trkpt lat="45.16878" lon="2.76119">
        <ele>1392</ele>
        <time>2000-01-01T02:48:23.000Z</time>
      </trkpt>
      <trkpt lat="45.16884" lon="2.76117">
        <ele>1392.8</ele>
        <time>2000-01-01T02:48:33.000Z</time>
      </trkpt>
      <trkpt lat="45.16885" lon="2.76116">
        <ele>1392.8</ele>
        <time>2000-01-01T02:48:43.000Z</time>
      </trkpt>
      <trkpt lat="45.16886" lon="2.76116">
        <ele>1392.8</ele>
        <time>2000-01-01T02:48:53.000Z</time>
      </trkpt>
      <trkpt lat="45.16887" lon="2.76111">
        <ele>1393.1</ele>
        <time>2000-01-01T02:49:03.000Z</time>
      </trkpt>
      <trkpt lat="45.16891" lon="2.76098">
        <ele>1392</ele>
        <time>2000-01-01T02:49:13.000Z</time>
      </trkpt>
      <trkpt lat="45.16893" lon="2.76081">
        <ele>1394.5</ele>
        <time>2000-01-01T02:49:23.000Z</time>
      </trkpt>
      <trkpt lat="45.16893" lon="2.7607">
        <ele>1393</ele>
        <time>2000-01-01T02:49:33.000Z</time>
      </trkpt>
      <trkpt lat="45.16895" lon="2.76056">
        <ele>1398.6</ele>
        <time>2000-01-01T02:49:43.000Z</time>
      </trkpt>
      <trkpt lat="45.16899" lon="2.76043">
        <ele>1396</ele>
        <time>2000-01-01T02:49:53.000Z</time>
      </trkpt>
      <trkpt lat="45.16902" lon="2.76036">
        <ele>1403.3</ele>
        <time>2000-01-01T02:50:03.000Z</time>
      </trkpt>
      <trkpt lat="45.16905" lon="2.76032">
        <ele>1404.3</ele>
        <time>2000-01-01T02:50:13.000Z</time>
      </trkpt>
      <trkpt lat="45.16908" lon="2.76029">
        <ele>1405.1</ele>
        <time>2000-01-01T02:50:23.000Z</time>
      </trkpt>
      <trkpt lat="45.16913" lon="2.76026">
        <ele>1401</ele>
        <time>2000-01-01T02:50:33.000Z</time>
      </trkpt>
      <trkpt lat="45.16915" lon="2.76022">
        <ele>1406.7</ele>
        <time>2000-01-01T02:50:43.000Z</time>
      </trkpt>
      <trkpt lat="45.16916" lon="2.76019">
        <ele>1407.2</ele>
        <time>2000-01-01T02:50:53.000Z</time>
      </trkpt>
      <trkpt lat="45.16913" lon="2.76007">
        <ele>1408.8</ele>
        <time>2000-01-01T02:51:03.000Z</time>
      </trkpt>
      <trkpt lat="45.16914" lon="2.7599">
        <ele>1406</ele>
        <time>2000-01-01T02:51:13.000Z</time>
      </trkpt>
      <trkpt lat="45.16917" lon="2.7598">
        <ele>1411.4</ele>
        <time>2000-01-01T02:51:23.000Z</time>
      </trkpt>
      <trkpt lat="45.16922" lon="2.75967">
        <ele>1412</ele>
        <time>2000-01-01T02:51:33.000Z</time>
      </trkpt>
      <trkpt lat="45.16934" lon="2.75952">
        <ele>1409</ele>
        <time>2000-01-01T02:51:43.000Z</time>
      </trkpt>
      <trkpt lat="45.16941" lon="2.75948">
        <ele>1412</ele>
        <time>2000-01-01T02:51:53.000Z</time>
      </trkpt>
      <trkpt lat="45.16964" lon="2.75941">
        <ele>1411</ele>
        <time>2000-01-01T02:52:03.000Z</time>
      </trkpt>
      <trkpt lat="45.16993" lon="2.75934">
        <ele>1412</ele>
        <time>2000-01-01T02:52:13.000Z</time>
      </trkpt>
      <trkpt lat="45.1701" lon="2.75929">
        <ele>1415</ele>
        <time>2000-01-01T02:52:23.000Z</time>
      </trkpt>
      <trkpt lat="45.17022" lon="2.75923">
        <ele>1413</ele>
        <time>2000-01-01T02:52:33.000Z</time>
      </trkpt>
      <trkpt lat="45.17029" lon="2.75917">
        <ele>1415.9</ele>
        <time>2000-01-01T02:52:43.000Z</time>
      </trkpt>
      <trkpt lat="45.17037" lon="2.75911">
        <ele>1416.1</ele>
        <time>2000-01-01T02:52:53.000Z</time>
      </trkpt>
      <trkpt lat="45.17044" lon="2.75901">
        <ele>1415</ele>
        <time>2000-01-01T02:53:03.000Z</time>
      </trkpt>
      <trkpt lat="45.17051" lon="2.75888">
        <ele>1417.2</ele>
        <time>2000-01-01T02:53:13.000Z</time>
      </trkpt>
      <trkpt lat="45.17054" lon="2.75884">
        <ele>1417.1</ele>
        <time>2000-01-01T02:53:23.000Z</time>
      </trkpt>
      <trkpt lat="45.17056" lon="2.75887">
        <ele>1417</ele>
        <time>2000-01-01T02:53:33.000Z</time>
      </trkpt>
      <trkpt lat="45.17056" lon="2.75887">
        <ele>1417</ele>
        <time>2000-01-01T02:53:43.000Z</time>
      </trkpt>
      <trkpt lat="45.17054" lon="2.75884">
        <ele>1416</ele>
        <time>2000-01-01T02:53:53.000Z</time>
      </trkpt>
      <trkpt lat="45.17061" lon="2.75869">
        <ele>1416.8</ele>
        <time>2000-01-01T02:54:03.000Z</time>
      </trkpt>
      <trkpt lat="45.17071" lon="2.7585">
        <ele>1416</ele>
        <time>2000-01-01T02:54:13.000Z</time>
      </trkpt>
      <trkpt lat="45.17079" lon="2.75835">
        <ele>1417.2</ele>
        <time>2000-01-01T02:54:23.000Z</time>
      </trkpt>
      <trkpt lat="45.17083" lon="2.7583">
        <ele>1417.5</ele>
        <time>2000-01-01T02:54:33.000Z</time>
      </trkpt>
      <trkpt lat="45.1709" lon="2.75821">
        <ele>1416</ele>
        <time>2000-01-01T02:54:43.000Z</time>
      </trkpt>
      <trkpt lat="45.17097" lon="2.75814">
        <ele>1420.3</ele>
        <time>2000-01-01T02:54:53.000Z</time>
      </trkpt>
      <trkpt lat="45.17102" lon="2.75807">
        <ele>1421.5</ele>
        <time>2000-01-01T02:55:03.000Z</time>
      </trkpt>
      <trkpt lat="45.17118" lon="2.75785">
        <ele>1417</ele>
        <time>2000-01-01T02:55:13.000Z</time>
      </trkpt>
      <trkpt lat="45.17141" lon="2.75753">
        <ele>1424</ele>
        <time>2000-01-01T02:55:23.000Z</time>
      </trkpt>
      <trkpt lat="45.17157" lon="2.75728">
        <ele>1426</ele>
        <time>2000-01-01T02:55:33.000Z</time>
      </trkpt>
      <trkpt lat="45.17172" lon="2.75697">
        <ele>1426</ele>
        <time>2000-01-01T02:55:43.000Z</time>
      </trkpt>
      <trkpt lat="45.17183" lon="2.75671">
        <ele>1426</ele>
        <time>2000-01-01T02:55:53.000Z</time>
      </trkpt>
      <trkpt lat="45.17193" lon="2.75642">
        <ele>1426</ele>
        <time>2000-01-01T02:56:03.000Z</time>
      </trkpt>
      <trkpt lat="45.172" lon="2.75616">
        <ele>1426</ele>
        <time>2000-01-01T02:56:13.000Z</time>
      </trkpt>
      <trkpt lat="45.17209" lon="2.75578">
        <ele>1425.5</ele>
        <time>2000-01-01T02:56:23.000Z</time>
      </trkpt>
      <trkpt lat="45.17211" lon="2.75565">
        <ele>1425.6</ele>
        <time>2000-01-01T02:56:33.000Z</time>
      </trkpt>
      <trkpt lat="45.17213" lon="2.75555">
        <ele>1425.7</ele>
        <time>2000-01-01T02:56:43.000Z</time>
      </trkpt>
      <trkpt lat="45.17219" lon="2.75516">
        <ele>1425</ele>
        <time>2000-01-01T02:56:53.000Z</time>
      </trkpt>
      <trkpt lat="45.17223" lon="2.7549">
        <ele>1424.9</ele>
        <time>2000-01-01T02:57:03.000Z</time>
      </trkpt>
      <trkpt lat="45.17222" lon="2.75462">
        <ele>1425</ele>
        <time>2000-01-01T02:57:13.000Z</time>
      </trkpt>
      <trkpt lat="45.17222" lon="2.75422">
        <ele>1428</ele>
        <time>2000-01-01T02:57:23.000Z</time>
      </trkpt>
      <trkpt lat="45.17218" lon="2.75368">
        <ele>1429</ele>
        <time>2000-01-01T02:57:33.000Z</time>
      </trkpt>
      <trkpt lat="45.17219" lon="2.7536">
        <ele>1428.5</ele>
        <time>2000-01-01T02:57:43.000Z</time>
      </trkpt>
      <trkpt lat="45.1722" lon="2.7536">
        <ele>1428.4</ele>
        <time>2000-01-01T02:57:53.000Z</time>
      </trkpt>
      <trkpt lat="45.17221" lon="2.75356">
        <ele>1428.4</ele>
        <time>2000-01-01T02:58:03.000Z</time>
      </trkpt>
      <trkpt lat="45.17222" lon="2.75353">
        <ele>1428.3</ele>
        <time>2000-01-01T02:58:13.000Z</time>
      </trkpt>
      <trkpt lat="45.17223" lon="2.75332">
        <ele>1431</ele>
        <time>2000-01-01T02:58:23.000Z</time>
      </trkpt>
      <trkpt lat="45.17223" lon="2.75321">
        <ele>1429.4</ele>
        <time>2000-01-01T02:58:33.000Z</time>
      </trkpt>
      <trkpt lat="45.17222" lon="2.75304">
        <ele>1431</ele>
        <time>2000-01-01T02:58:43.000Z</time>
      </trkpt>
      <trkpt lat="45.17208" lon="2.75296">
        <ele>1431.7</ele>
        <time>2000-01-01T02:58:53.000Z</time>
      </trkpt>
      <trkpt lat="45.17194" lon="2.7529">
        <ele>1431</ele>
        <time>2000-01-01T02:59:03.000Z</time>
      </trkpt>
      <trkpt lat="45.17181" lon="2.75284">
        <ele>1435.3</ele>
        <time>2000-01-01T02:59:13.000Z</time>
      </trkpt>
      <trkpt lat="45.17166" lon="2.7527">
        <ele>1434</ele>
        <time>2000-01-01T02:59:23.000Z</time>
      </trkpt>
      <trkpt lat="45.17157" lon="2.75265">
        <ele>1438.7</ele>
        <time>2000-01-01T02:59:33.000Z</time>
      </trkpt>
      <trkpt lat="45.17119" lon="2.75249">
        <ele>1438</ele>
        <time>2000-01-01T02:59:43.000Z</time>
      </trkpt>
      <trkpt lat="45.171" lon="2.75242">
        <ele>1444</ele>
        <time>2000-01-01T02:59:53.000Z</time>
      </trkpt>
      <trkpt lat="45.1706" lon="2.75228">
        <ele>1446</ele>
        <time>2000-01-01T03:00:03.000Z</time>
      </trkpt>
      <trkpt lat="45.17027" lon="2.75219">
        <ele>1452</ele>
        <time>2000-01-01T03:00:13.000Z</time>
      </trkpt>
      <trkpt lat="45.16992" lon="2.75211">
        <ele>1457</ele>
        <time>2000-01-01T03:00:23.000Z</time>
      </trkpt>
      <trkpt lat="45.16976" lon="2.75211">
        <ele>1465.5</ele>
        <time>2000-01-01T03:00:33.000Z</time>
      </trkpt>
      <trkpt lat="45.16965" lon="2.75213">
        <ele>1461</ele>
        <time>2000-01-01T03:00:43.000Z</time>
      </trkpt>
      <trkpt lat="45.16956" lon="2.75216">
        <ele>1467.8</ele>
        <time>2000-01-01T03:00:53.000Z</time>
      </trkpt>
      <trkpt lat="45.16945" lon="2.75221">
        <ele>1464</ele>
        <time>2000-01-01T03:01:03.000Z</time>
      </trkpt>
      <trkpt lat="45.16941" lon="2.75224">
        <ele>1469.3</ele>
        <time>2000-01-01T03:01:13.000Z</time>
      </trkpt>
      <trkpt lat="45.16933" lon="2.75222">
        <ele>1469.8</ele>
        <time>2000-01-01T03:01:23.000Z</time>
      </trkpt>
      <trkpt lat="45.16923" lon="2.75216">
        <ele>1467</ele>
        <time>2000-01-01T03:01:33.000Z</time>
      </trkpt>
      <trkpt lat="45.16913" lon="2.75207">
        <ele>1469.9</ele>
        <time>2000-01-01T03:01:43.000Z</time>
      </trkpt>
      <trkpt lat="45.16892" lon="2.7519">
        <ele>1469</ele>
        <time>2000-01-01T03:01:53.000Z</time>
      </trkpt>
      <trkpt lat="45.16867" lon="2.75166">
        <ele>1470</ele>
        <time>2000-01-01T03:02:03.000Z</time>
      </trkpt>
      <trkpt lat="45.16847" lon="2.75153">
        <ele>1471</ele>
        <time>2000-01-01T03:02:13.000Z</time>
      </trkpt>
      <trkpt lat="45.16826" lon="2.7513">
        <ele>1471</ele>
        <time>2000-01-01T03:02:23.000Z</time>
      </trkpt>
      <trkpt lat="45.16799" lon="2.75106">
        <ele>1471</ele>
        <time>2000-01-01T03:02:33.000Z</time>
      </trkpt>
      <trkpt lat="45.16774" lon="2.75089">
        <ele>1471</ele>
        <time>2000-01-01T03:02:43.000Z</time>
      </trkpt>
      <trkpt lat="45.16756" lon="2.75082">
        <ele>1466.3</ele>
        <time>2000-01-01T03:02:53.000Z</time>
      </trkpt>
      <trkpt lat="45.16751" lon="2.75077">
        <ele>1470</ele>
        <time>2000-01-01T03:03:03.000Z</time>
      </trkpt>
      <trkpt lat="45.16732" lon="2.75056">
        <ele>1470</ele>
        <time>2000-01-01T03:03:13.000Z</time>
      </trkpt>
      <trkpt lat="45.16705" lon="2.75033">
        <ele>1470</ele>
        <time>2000-01-01T03:03:23.000Z</time>
      </trkpt>
      <trkpt lat="45.16681" lon="2.75013">
        <ele>1470</ele>
        <time>2000-01-01T03:03:33.000Z</time>
      </trkpt>
      <trkpt lat="45.16655" lon="2.74993">
        <ele>1471</ele>
        <time>2000-01-01T03:03:43.000Z</time>
      </trkpt>
      <trkpt lat="45.16633" lon="2.74979">
        <ele>1472</ele>
        <time>2000-01-01T03:03:53.000Z</time>
      </trkpt>
      <trkpt lat="45.16609" lon="2.74965">
        <ele>1473</ele>
        <time>2000-01-01T03:04:03.000Z</time>
      </trkpt>
      <trkpt lat="45.1658" lon="2.74938">
        <ele>1474</ele>
        <time>2000-01-01T03:04:13.000Z</time>
      </trkpt>
      <trkpt lat="45.16558" lon="2.74919">
        <ele>1479</ele>
        <time>2000-01-01T03:04:23.000Z</time>
      </trkpt>
      <trkpt lat="45.16544" lon="2.74905">
        <ele>1487.3</ele>
        <time>2000-01-01T03:04:33.000Z</time>
      </trkpt>
      <trkpt lat="45.16532" lon="2.74893">
        <ele>1483</ele>
        <time>2000-01-01T03:04:43.000Z</time>
      </trkpt>
      <trkpt lat="45.16521" lon="2.74882">
        <ele>1492.5</ele>
        <time>2000-01-01T03:04:53.000Z</time>
      </trkpt>
      <trkpt lat="45.16514" lon="2.74872">
        <ele>1488</ele>
        <time>2000-01-01T03:05:03.000Z</time>
      </trkpt>
      <trkpt lat="45.16509" lon="2.74867">
        <ele>1495.3</ele>
        <time>2000-01-01T03:05:13.000Z</time>
      </trkpt>
      <trkpt lat="45.16504" lon="2.74864">
        <ele>1496.2</ele>
        <time>2000-01-01T03:05:23.000Z</time>
      </trkpt>
      <trkpt lat="45.16499" lon="2.74862">
        <ele>1497</ele>
        <time>2000-01-01T03:05:33.000Z</time>
      </trkpt>
      <trkpt lat="45.16488" lon="2.7486">
        <ele>1492</ele>
        <time>2000-01-01T03:05:43.000Z</time>
      </trkpt>
      <trkpt lat="45.16484" lon="2.74857">
        <ele>1498.4</ele>
        <time>2000-01-01T03:05:53.000Z</time>
      </trkpt>
      <trkpt lat="45.16478" lon="2.7485">
        <ele>1499.4</ele>
        <time>2000-01-01T03:06:03.000Z</time>
      </trkpt>
      <trkpt lat="45.1647" lon="2.74839">
        <ele>1495</ele>
        <time>2000-01-01T03:06:13.000Z</time>
      </trkpt>
      <trkpt lat="45.16461" lon="2.74833">
        <ele>1501.4</ele>
        <time>2000-01-01T03:06:23.000Z</time>
      </trkpt>
      <trkpt lat="45.16448" lon="2.74825">
        <ele>1499</ele>
        <time>2000-01-01T03:06:33.000Z</time>
      </trkpt>
      <trkpt lat="45.16435" lon="2.74815">
        <ele>1502.7</ele>
        <time>2000-01-01T03:06:43.000Z</time>
      </trkpt>
      <trkpt lat="45.16434" lon="2.74815">
        <ele>1502.7</ele>
        <time>2000-01-01T03:06:53.000Z</time>
      </trkpt>
      <trkpt lat="45.16436" lon="2.7481">
        <ele>1501</ele>
        <time>2000-01-01T03:07:03.000Z</time>
      </trkpt>
      <trkpt lat="45.16436" lon="2.7481">
        <ele>1502.8</ele>
        <time>2000-01-01T03:07:13.000Z</time>
      </trkpt>
      <trkpt lat="45.16434" lon="2.74815">
        <ele>1502.7</ele>
        <time>2000-01-01T03:07:23.000Z</time>
      </trkpt>
      <trkpt lat="45.16424" lon="2.74807">
        <ele>1502.9</ele>
        <time>2000-01-01T03:07:33.000Z</time>
      </trkpt>
      <trkpt lat="45.16415" lon="2.748">
        <ele>1502</ele>
        <time>2000-01-01T03:07:43.000Z</time>
      </trkpt>
      <trkpt lat="45.164" lon="2.74798">
        <ele>1503.3</ele>
        <time>2000-01-01T03:07:53.000Z</time>
      </trkpt>
      <trkpt lat="45.16391" lon="2.74802">
        <ele>1503</ele>
        <time>2000-01-01T03:08:03.000Z</time>
      </trkpt>
      <trkpt lat="45.16386" lon="2.74803">
        <ele>1503</ele>
        <time>2000-01-01T03:08:13.000Z</time>
      </trkpt>
      <trkpt lat="45.16378" lon="2.74802">
        <ele>1502.7</ele>
        <time>2000-01-01T03:08:23.000Z</time>
      </trkpt>
      <trkpt lat="45.16371" lon="2.74795">
        <ele>1503</ele>
        <time>2000-01-01T03:08:33.000Z</time>
      </trkpt>
      <trkpt lat="45.16359" lon="2.74781">
        <ele>1501.8</ele>
        <time>2000-01-01T03:08:43.000Z</time>
      </trkpt>
      <trkpt lat="45.1635" lon="2.74773">
        <ele>1502</ele>
        <time>2000-01-01T03:08:53.000Z</time>
      </trkpt>
      <trkpt lat="45.16339" lon="2.74767">
        <ele>1500.7</ele>
        <time>2000-01-01T03:09:03.000Z</time>
      </trkpt>
      <trkpt lat="45.16321" lon="2.74763">
        <ele>1502</ele>
        <time>2000-01-01T03:09:13.000Z</time>
      </trkpt>
      <trkpt lat="45.16305" lon="2.74756">
        <ele>1498.7</ele>
        <time>2000-01-01T03:09:23.000Z</time>
      </trkpt>
      <trkpt lat="45.16289" lon="2.74751">
        <ele>1500</ele>
        <time>2000-01-01T03:09:33.000Z</time>
      </trkpt>
      <trkpt lat="45.16272" lon="2.74741">
        <ele>1497.4</ele>
        <time>2000-01-01T03:09:43.000Z</time>
      </trkpt>
      <trkpt lat="45.16255" lon="2.74731">
        <ele>1498</ele>
        <time>2000-01-01T03:09:53.000Z</time>
      </trkpt>
      <trkpt lat="45.16252" lon="2.74729">
        <ele>1496.9</ele>
        <time>2000-01-01T03:10:03.000Z</time>
      </trkpt>
      <trkpt lat="45.16247" lon="2.74728">
        <ele>1496.8</ele>
        <time>2000-01-01T03:10:13.000Z</time>
      </trkpt>
      <trkpt lat="45.16246" lon="2.74727">
        <ele>1496.8</ele>
        <time>2000-01-01T03:10:23.000Z</time>
      </trkpt>
      <trkpt lat="45.16236" lon="2.74723">
        <ele>1496</ele>
        <time>2000-01-01T03:10:33.000Z</time>
      </trkpt>
      <trkpt lat="45.16231" lon="2.74723">
        <ele>1497</ele>
        <time>2000-01-01T03:10:43.000Z</time>
      </trkpt>
      <trkpt lat="45.16228" lon="2.74723">
        <ele>1497</ele>
        <time>2000-01-01T03:10:53.000Z</time>
      </trkpt>
      <trkpt lat="45.16224" lon="2.74724">
        <ele>1496.9</ele>
        <time>2000-01-01T03:11:03.000Z</time>
      </trkpt>
      <trkpt lat="45.16218" lon="2.74723">
        <ele>1497.1</ele>
        <time>2000-01-01T03:11:13.000Z</time>
      </trkpt>
      <trkpt lat="45.16213" lon="2.7472">
        <ele>1496</ele>
        <time>2000-01-01T03:11:23.000Z</time>
      </trkpt>
      <trkpt lat="45.16197" lon="2.74692">
        <ele>1496</ele>
        <time>2000-01-01T03:11:33.000Z</time>
      </trkpt>
      <trkpt lat="45.16184" lon="2.7468">
        <ele>1500.4</ele>
        <time>2000-01-01T03:11:43.000Z</time>
      </trkpt>
      <trkpt lat="45.16169" lon="2.74671">
        <ele>1498</ele>
        <time>2000-01-01T03:11:53.000Z</time>
      </trkpt>
      <trkpt lat="45.16157" lon="2.74669">
        <ele>1502.5</ele>
        <time>2000-01-01T03:12:03.000Z</time>
      </trkpt>
      <trkpt lat="45.16151" lon="2.74665">
        <ele>1503.2</ele>
        <time>2000-01-01T03:12:13.000Z</time>
      </trkpt>
      <trkpt lat="45.16148" lon="2.74662">
        <ele>1501</ele>
        <time>2000-01-01T03:12:23.000Z</time>
      </trkpt>
      <trkpt lat="45.16146" lon="2.74657">
        <ele>1504.2</ele>
        <time>2000-01-01T03:12:33.000Z</time>
      </trkpt>
      <trkpt lat="45.16143" lon="2.74651">
        <ele>1504.8</ele>
        <time>2000-01-01T03:12:43.000Z</time>
      </trkpt>
      <trkpt lat="45.16136" lon="2.74634">
        <ele>1503</ele>
        <time>2000-01-01T03:12:53.000Z</time>
      </trkpt>
      <trkpt lat="45.16131" lon="2.74623">
        <ele>1507</ele>
        <time>2000-01-01T03:13:03.000Z</time>
      </trkpt>
      <trkpt lat="45.16119" lon="2.74594">
        <ele>1506</ele>
        <time>2000-01-01T03:13:13.000Z</time>
      </trkpt>
      <trkpt lat="45.16105" lon="2.74563">
        <ele>1510</ele>
        <time>2000-01-01T03:13:23.000Z</time>
      </trkpt>
      <trkpt lat="45.16104" lon="2.74562">
        <ele>1512.1</ele>
        <time>2000-01-01T03:13:33.000Z</time>
      </trkpt>
      <trkpt lat="45.16096" lon="2.74545">
        <ele>1513.5</ele>
        <time>2000-01-01T03:13:43.000Z</time>
      </trkpt>
      <trkpt lat="45.16086" lon="2.74525">
        <ele>1513</ele>
        <time>2000-01-01T03:13:53.000Z</time>
      </trkpt>
      <trkpt lat="45.16075" lon="2.74503">
        <ele>1516.8</ele>
        <time>2000-01-01T03:14:03.000Z</time>
      </trkpt>
      <trkpt lat="45.1606" lon="2.74478">
        <ele>1516</ele>
        <time>2000-01-01T03:14:13.000Z</time>
      </trkpt>
      <trkpt lat="45.16055" lon="2.74469">
        <ele>1519.3</ele>
        <time>2000-01-01T03:14:23.000Z</time>
      </trkpt>
      <trkpt lat="45.16047" lon="2.74454">
        <ele>1519</ele>
        <time>2000-01-01T03:14:33.000Z</time>
      </trkpt>
      <trkpt lat="45.16035" lon="2.74435">
        <ele>1523.7</ele>
        <time>2000-01-01T03:14:43.000Z</time>
      </trkpt>
      <trkpt lat="45.16028" lon="2.74427">
        <ele>1522</ele>
        <time>2000-01-01T03:14:53.000Z</time>
      </trkpt>
      <trkpt lat="45.16015" lon="2.74417">
        <ele>1527.4</ele>
        <time>2000-01-01T03:15:03.000Z</time>
      </trkpt>
      <trkpt lat="45.16008" lon="2.74411">
        <ele>1526</ele>
        <time>2000-01-01T03:15:13.000Z</time>
      </trkpt>
      <trkpt lat="45.16004" lon="2.74405">
        <ele>1528.9</ele>
        <time>2000-01-01T03:15:23.000Z</time>
      </trkpt>
      <trkpt lat="45.15995" lon="2.74394">
        <ele>1530.5</ele>
        <time>2000-01-01T03:15:33.000Z</time>
      </trkpt>
      <trkpt lat="45.15974" lon="2.7438">
        <ele>1529</ele>
        <time>2000-01-01T03:15:43.000Z</time>
      </trkpt>
      <trkpt lat="45.15952" lon="2.74364">
        <ele>1534</ele>
        <time>2000-01-01T03:15:53.000Z</time>
      </trkpt>
      <trkpt lat="45.15933" lon="2.74348">
        <ele>1537</ele>
        <time>2000-01-01T03:16:03.000Z</time>
      </trkpt>
      <trkpt lat="45.15922" lon="2.74341">
        <ele>1541.5</ele>
        <time>2000-01-01T03:16:13.000Z</time>
      </trkpt>
      <trkpt lat="45.15894" lon="2.74324">
        <ele>1540</ele>
        <time>2000-01-01T03:16:23.000Z</time>
      </trkpt>
      <trkpt lat="45.15875" lon="2.74314">
        <ele>1547</ele>
        <time>2000-01-01T03:16:33.000Z</time>
      </trkpt>
      <trkpt lat="45.15858" lon="2.74305">
        <ele>1547.1</ele>
        <time>2000-01-01T03:16:43.000Z</time>
      </trkpt>
      <trkpt lat="45.15849" lon="2.743">
        <ele>1549</ele>
        <time>2000-01-01T03:16:53.000Z</time>
      </trkpt>
      <trkpt lat="45.15836" lon="2.74292">
        <ele>1546.9</ele>
        <time>2000-01-01T03:17:03.000Z</time>
      </trkpt>
      <trkpt lat="45.15825" lon="2.74283">
        <ele>1549.5</ele>
        <time>2000-01-01T03:17:13.000Z</time>
      </trkpt>
      <trkpt lat="45.1581" lon="2.74273">
        <ele>1544.8</ele>
        <time>2000-01-01T03:17:23.000Z</time>
      </trkpt>
      <trkpt lat="45.1581" lon="2.74273">
        <ele>1544.8</ele>
        <time>2000-01-01T03:17:33.000Z</time>
      </trkpt>
      <trkpt lat="45.1578" lon="2.74253">
        <ele>1547.7</ele>
        <time>2000-01-01T03:17:43.000Z</time>
      </trkpt>
      <trkpt lat="45.15754" lon="2.74248">
        <ele>1546</ele>
        <time>2000-01-01T03:17:53.000Z</time>
      </trkpt>
      <trkpt lat="45.15737" lon="2.74244">
        <ele>1538.5</ele>
        <time>2000-01-01T03:18:03.000Z</time>
      </trkpt>
      <trkpt lat="45.1572" lon="2.74239">
        <ele>1541</ele>
        <time>2000-01-01T03:18:13.000Z</time>
      </trkpt>
      <trkpt lat="45.15693" lon="2.74233">
        <ele>1537</ele>
        <time>2000-01-01T03:18:23.000Z</time>
      </trkpt>
      <trkpt lat="45.15656" lon="2.74225">
        <ele>1534</ele>
        <time>2000-01-01T03:18:33.000Z</time>
      </trkpt>
      <trkpt lat="45.15615" lon="2.74214">
        <ele>1531</ele>
        <time>2000-01-01T03:18:43.000Z</time>
      </trkpt>
      <trkpt lat="45.15591" lon="2.74209">
        <ele>1528</ele>
        <time>2000-01-01T03:18:53.000Z</time>
      </trkpt>
      <trkpt lat="45.15568" lon="2.74203">
        <ele>1526</ele>
        <time>2000-01-01T03:19:03.000Z</time>
      </trkpt>
      <trkpt lat="45.15544" lon="2.74197">
        <ele>1524</ele>
        <time>2000-01-01T03:19:13.000Z</time>
      </trkpt>
      <trkpt lat="45.15516" lon="2.74168">
        <ele>1523</ele>
        <time>2000-01-01T03:19:23.000Z</time>
      </trkpt>
      <trkpt lat="45.15481" lon="2.74134">
        <ele>1522</ele>
        <time>2000-01-01T03:19:33.000Z</time>
      </trkpt>
      <trkpt lat="45.15447" lon="2.74101">
        <ele>1521</ele>
        <time>2000-01-01T03:19:43.000Z</time>
      </trkpt>
      <trkpt lat="45.15418" lon="2.74076">
        <ele>1519</ele>
        <time>2000-01-01T03:19:53.000Z</time>
      </trkpt>
      <trkpt lat="45.15386" lon="2.74053">
        <ele>1518</ele>
        <time>2000-01-01T03:20:03.000Z</time>
      </trkpt>
      <trkpt lat="45.15359" lon="2.74033">
        <ele>1518</ele>
        <time>2000-01-01T03:20:13.000Z</time>
      </trkpt>
      <trkpt lat="45.15319" lon="2.74001">
        <ele>1521</ele>
        <time>2000-01-01T03:20:23.000Z</time>
      </trkpt>
      <trkpt lat="45.1529" lon="2.73977">
        <ele>1525</ele>
        <time>2000-01-01T03:20:33.000Z</time>
      </trkpt>
      <trkpt lat="45.15264" lon="2.73958">
        <ele>1527</ele>
        <time>2000-01-01T03:20:43.000Z</time>
      </trkpt>
      <trkpt lat="45.1523" lon="2.73926">
        <ele>1530</ele>
        <time>2000-01-01T03:20:53.000Z</time>
      </trkpt>
      <trkpt lat="45.15194" lon="2.73894">
        <ele>1533</ele>
        <time>2000-01-01T03:21:03.000Z</time>
      </trkpt>
      <trkpt lat="45.15178" lon="2.73872">
        <ele>1536</ele>
        <time>2000-01-01T03:21:13.000Z</time>
      </trkpt>
      <trkpt lat="45.1516" lon="2.73849">
        <ele>1538</ele>
        <time>2000-01-01T03:21:23.000Z</time>
      </trkpt>
      <trkpt lat="45.15134" lon="2.7383">
        <ele>1541</ele>
        <time>2000-01-01T03:21:33.000Z</time>
      </trkpt>
      <trkpt lat="45.15105" lon="2.73814">
        <ele>1544</ele>
        <time>2000-01-01T03:21:43.000Z</time>
      </trkpt>
      <trkpt lat="45.15083" lon="2.73796">
        <ele>1548</ele>
        <time>2000-01-01T03:21:53.000Z</time>
      </trkpt>
      <trkpt lat="45.1506" lon="2.73777">
        <ele>1552</ele>
        <time>2000-01-01T03:22:03.000Z</time>
      </trkpt>
      <trkpt lat="45.15026" lon="2.73744">
        <ele>1557</ele>
        <time>2000-01-01T03:22:13.000Z</time>
      </trkpt>
      <trkpt lat="45.14991" lon="2.73712">
        <ele>1565</ele>
        <time>2000-01-01T03:22:23.000Z</time>
      </trkpt>
      <trkpt lat="45.14961" lon="2.73682">
        <ele>1571</ele>
        <time>2000-01-01T03:22:33.000Z</time>
      </trkpt>
      <trkpt lat="45.14932" lon="2.73643">
        <ele>1575</ele>
        <time>2000-01-01T03:22:43.000Z</time>
      </trkpt>
      <trkpt lat="45.14906" lon="2.73603">
        <ele>1576</ele>
        <time>2000-01-01T03:22:53.000Z</time>
      </trkpt>
      <trkpt lat="45.14887" lon="2.73561">
        <ele>1576</ele>
        <time>2000-01-01T03:23:03.000Z</time>
      </trkpt>
      <trkpt lat="45.14872" lon="2.73518">
        <ele>1577</ele>
        <time>2000-01-01T03:23:13.000Z</time>
      </trkpt>
      <trkpt lat="45.14856" lon="2.73475">
        <ele>1579</ele>
        <time>2000-01-01T03:23:23.000Z</time>
      </trkpt>
      <trkpt lat="45.14851" lon="2.73465">
        <ele>1583.4</ele>
        <time>2000-01-01T03:23:33.000Z</time>
      </trkpt>
      <trkpt lat="45.14821" lon="2.73455">
        <ele>1579</ele>
        <time>2000-01-01T03:23:43.000Z</time>
      </trkpt>
      <trkpt lat="45.148" lon="2.73447">
        <ele>1579</ele>
        <time>2000-01-01T03:23:53.000Z</time>
      </trkpt>
      <trkpt lat="45.14793" lon="2.73432">
        <ele>1586.3</ele>
        <time>2000-01-01T03:24:03.000Z</time>
      </trkpt>
      <trkpt lat="45.14789" lon="2.73399">
        <ele>1583.5</ele>
        <time>2000-01-01T03:24:13.000Z</time>
      </trkpt>
      <trkpt lat="45.14785" lon="2.73364">
        <ele>1588</ele>
        <time>2000-01-01T03:24:23.000Z</time>
      </trkpt>
      <trkpt lat="45.14779" lon="2.73317">
        <ele>1595</ele>
        <time>2000-01-01T03:24:33.000Z</time>
      </trkpt>
      <trkpt lat="45.14785" lon="2.73287">
        <ele>1603</ele>
        <time>2000-01-01T03:24:43.000Z</time>
      </trkpt>
      <trkpt lat="45.1479" lon="2.7326">
        <ele>1606</ele>
        <time>2000-01-01T03:24:53.000Z</time>
      </trkpt>
      <trkpt lat="45.14782" lon="2.7325">
        <ele>1610.5</ele>
        <time>2000-01-01T03:25:03.000Z</time>
      </trkpt>
      <trkpt lat="45.14775" lon="2.73247">
        <ele>1609.4</ele>
        <time>2000-01-01T03:25:13.000Z</time>
      </trkpt>
      <trkpt lat="45.14769" lon="2.73245">
        <ele>1605.5</ele>
        <time>2000-01-01T03:25:23.000Z</time>
      </trkpt>
      <trkpt lat="45.14758" lon="2.73239">
        <ele>1607.2</ele>
        <time>2000-01-01T03:25:33.000Z</time>
      </trkpt>
      <trkpt lat="45.14744" lon="2.73234">
        <ele>1605</ele>
        <time>2000-01-01T03:25:43.000Z</time>
      </trkpt>
      <trkpt lat="45.14734" lon="2.73229">
        <ele>1603.4</ele>
        <time>2000-01-01T03:25:53.000Z</time>
      </trkpt>
      <trkpt lat="45.14713" lon="2.73208">
        <ele>1602</ele>
        <time>2000-01-01T03:26:03.000Z</time>
      </trkpt>
      <trkpt lat="45.14699" lon="2.73191">
        <ele>1594</ele>
        <time>2000-01-01T03:26:13.000Z</time>
      </trkpt>
      <trkpt lat="45.14689" lon="2.73179">
        <ele>1597</ele>
        <time>2000-01-01T03:26:23.000Z</time>
      </trkpt>
      <trkpt lat="45.14677" lon="2.73175">
        <ele>1591.1</ele>
        <time>2000-01-01T03:26:33.000Z</time>
      </trkpt>
      <trkpt lat="45.1467" lon="2.7317">
        <ele>1591</ele>
        <time>2000-01-01T03:26:43.000Z</time>
      </trkpt>
      <trkpt lat="45.14665" lon="2.73162">
        <ele>1588.3</ele>
        <time>2000-01-01T03:26:53.000Z</time>
      </trkpt>
      <trkpt lat="45.14661" lon="2.73158">
        <ele>1586.8</ele>
        <time>2000-01-01T03:27:03.000Z</time>
      </trkpt>
      <trkpt lat="45.14653" lon="2.73155">
        <ele>1589</ele>
        <time>2000-01-01T03:27:13.000Z</time>
      </trkpt>
      <trkpt lat="45.14636" lon="2.73153">
        <ele>1584.8</ele>
        <time>2000-01-01T03:27:23.000Z</time>
      </trkpt>
      <trkpt lat="45.14626" lon="2.7315">
        <ele>1586</ele>
        <time>2000-01-01T03:27:33.000Z</time>
      </trkpt>
      <trkpt lat="45.14617" lon="2.73144">
        <ele>1581.2</ele>
        <time>2000-01-01T03:27:43.000Z</time>
      </trkpt>
      <trkpt lat="45.14616" lon="2.73144">
        <ele>1581.2</ele>
        <time>2000-01-01T03:27:53.000Z</time>
      </trkpt>
      <trkpt lat="45.14616" lon="2.73143">
        <ele>1581</ele>
        <time>2000-01-01T03:28:03.000Z</time>
      </trkpt>
      <trkpt lat="45.14617" lon="2.73142">
        <ele>1580.8</ele>
        <time>2000-01-01T03:28:13.000Z</time>
      </trkpt>
      <trkpt lat="45.14619" lon="2.7314">
        <ele>1580.5</ele>
        <time>2000-01-01T03:28:23.000Z</time>
      </trkpt>
      <trkpt lat="45.14623" lon="2.73137">
        <ele>1579.4</ele>
        <time>2000-01-01T03:28:33.000Z</time>
      </trkpt>
      <trkpt lat="45.14624" lon="2.73137">
        <ele>1582</ele>
        <time>2000-01-01T03:28:43.000Z</time>
      </trkpt>
      <trkpt lat="45.14625" lon="2.73136">
        <ele>1578.9</ele>
        <time>2000-01-01T03:28:53.000Z</time>
      </trkpt>
      <trkpt lat="45.14624" lon="2.73135">
        <ele>1578.3</ele>
        <time>2000-01-01T03:29:03.000Z</time>
      </trkpt>
      <trkpt lat="45.14623" lon="2.73134">
        <ele>1577.7</ele>
        <time>2000-01-01T03:29:13.000Z</time>
      </trkpt>
      <trkpt lat="45.14619" lon="2.73132">
        <ele>1576.6</ele>
        <time>2000-01-01T03:29:23.000Z</time>
      </trkpt>
      <trkpt lat="45.14614" lon="2.73128">
        <ele>1574.5</ele>
        <time>2000-01-01T03:29:33.000Z</time>
      </trkpt>
      <trkpt lat="45.1461" lon="2.73125">
        <ele>1572.7</ele>
        <time>2000-01-01T03:29:43.000Z</time>
      </trkpt>
      <trkpt lat="45.14605" lon="2.73118">
        <ele>1581</ele>
        <time>2000-01-01T03:29:53.000Z</time>
      </trkpt>
      <trkpt lat="45.14602" lon="2.73113">
        <ele>1565.7</ele>
        <time>2000-01-01T03:30:03.000Z</time>
      </trkpt>
      <trkpt lat="45.14598" lon="2.73101">
        <ele>1563.1</ele>
        <time>2000-01-01T03:30:13.000Z</time>
      </trkpt>
      <trkpt lat="45.14592" lon="2.73089">
        <ele>1576</ele>
        <time>2000-01-01T03:30:23.000Z</time>
      </trkpt>
      <trkpt lat="45.14589" lon="2.73082">
        <ele>1561.2</ele>
        <time>2000-01-01T03:30:33.000Z</time>
      </trkpt>
      <trkpt lat="45.14586" lon="2.73075">
        <ele>1560.7</ele>
        <time>2000-01-01T03:30:43.000Z</time>
      </trkpt>
      <trkpt lat="45.14585" lon="2.73072">
        <ele>1560.5</ele>
        <time>2000-01-01T03:30:53.000Z</time>
      </trkpt>
      <trkpt lat="45.14578" lon="2.73064">
        <ele>1568</ele>
        <time>2000-01-01T03:31:03.000Z</time>
      </trkpt>
      <trkpt lat="45.1457" lon="2.73058">
        <ele>1556.7</ele>
        <time>2000-01-01T03:31:13.000Z</time>
      </trkpt>
      <trkpt lat="45.1457" lon="2.73048">
        <ele>1554.4</ele>
        <time>2000-01-01T03:31:23.000Z</time>
      </trkpt>
      <trkpt lat="45.14568" lon="2.73045">
        <ele>1562</ele>
        <time>2000-01-01T03:31:33.000Z</time>
      </trkpt>
      <trkpt lat="45.14563" lon="2.73043">
        <ele>1552.4</ele>
        <time>2000-01-01T03:31:43.000Z</time>
      </trkpt>
      <trkpt lat="45.14558" lon="2.73037">
        <ele>1550.7</ele>
        <time>2000-01-01T03:31:53.000Z</time>
      </trkpt>
      <trkpt lat="45.14555" lon="2.7303">
        <ele>1549.2</ele>
        <time>2000-01-01T03:32:03.000Z</time>
      </trkpt>
      <trkpt lat="45.1455" lon="2.73031">
        <ele>1556</ele>
        <time>2000-01-01T03:32:13.000Z</time>
      </trkpt>
      <trkpt lat="45.14547" lon="2.73028">
        <ele>1546.6</ele>
        <time>2000-01-01T03:32:23.000Z</time>
      </trkpt>
      <trkpt lat="45.14538" lon="2.73013">
        <ele>1541.8</ele>
        <time>2000-01-01T03:32:33.000Z</time>
      </trkpt>
      <trkpt lat="45.14528" lon="2.72994">
        <ele>1549</ele>
        <time>2000-01-01T03:32:43.000Z</time>
      </trkpt>
      <trkpt lat="45.1452" lon="2.72982">
        <ele>1537</ele>
        <time>2000-01-01T03:32:53.000Z</time>
      </trkpt>
      <trkpt lat="45.14507" lon="2.72969">
        <ele>1542</ele>
        <time>2000-01-01T03:33:03.000Z</time>
      </trkpt>
      <trkpt lat="45.14498" lon="2.72957">
        <ele>1535.9</ele>
        <time>2000-01-01T03:33:13.000Z</time>
      </trkpt>
      <trkpt lat="45.14491" lon="2.72944">
        <ele>1535</ele>
        <time>2000-01-01T03:33:23.000Z</time>
      </trkpt>
      <trkpt lat="45.14481" lon="2.72934">
        <ele>1531.2</ele>
        <time>2000-01-01T03:33:33.000Z</time>
      </trkpt>
      <trkpt lat="45.14473" lon="2.72917">
        <ele>1529</ele>
        <time>2000-01-01T03:33:43.000Z</time>
      </trkpt>
      <trkpt lat="45.14463" lon="2.72898">
        <ele>1524.9</ele>
        <time>2000-01-01T03:33:53.000Z</time>
      </trkpt>
      <trkpt lat="45.14453" lon="2.72883">
        <ele>1525</ele>
        <time>2000-01-01T03:34:03.000Z</time>
      </trkpt>
      <trkpt lat="45.1444" lon="2.72865">
        <ele>1517.9</ele>
        <time>2000-01-01T03:34:13.000Z</time>
      </trkpt>
      <trkpt lat="45.14433" lon="2.72852">
        <ele>1521</ele>
        <time>2000-01-01T03:34:23.000Z</time>
      </trkpt>
      <trkpt lat="45.14432" lon="2.72845">
        <ele>1515.7</ele>
        <time>2000-01-01T03:34:33.000Z</time>
      </trkpt>
      <trkpt lat="45.14428" lon="2.72834">
        <ele>1515</ele>
        <time>2000-01-01T03:34:43.000Z</time>
      </trkpt>
      <trkpt lat="45.14418" lon="2.72824">
        <ele>1518</ele>
        <time>2000-01-01T03:34:53.000Z</time>
      </trkpt>
      <trkpt lat="45.14414" lon="2.7281">
        <ele>1511.8</ele>
        <time>2000-01-01T03:35:03.000Z</time>
      </trkpt>
      <trkpt lat="45.14399" lon="2.72763">
        <ele>1516</ele>
        <time>2000-01-01T03:35:13.000Z</time>
      </trkpt>
      <trkpt lat="45.14386" lon="2.72715">
        <ele>1515</ele>
        <time>2000-01-01T03:35:23.000Z</time>
      </trkpt>
      <trkpt lat="45.14371" lon="2.72686">
        <ele>1515</ele>
        <time>2000-01-01T03:35:33.000Z</time>
      </trkpt>
      <trkpt lat="45.14362" lon="2.72663">
        <ele>1516.2</ele>
        <time>2000-01-01T03:35:43.000Z</time>
      </trkpt>
      <trkpt lat="45.14359" lon="2.72655">
        <ele>1515</ele>
        <time>2000-01-01T03:35:53.000Z</time>
      </trkpt>
      <trkpt lat="45.14359" lon="2.7265">
        <ele>1517.4</ele>
        <time>2000-01-01T03:36:03.000Z</time>
      </trkpt>
      <trkpt lat="45.14359" lon="2.72644">
        <ele>1517.8</ele>
        <time>2000-01-01T03:36:13.000Z</time>
      </trkpt>
      <trkpt lat="45.14359" lon="2.72629">
        <ele>1519.3</ele>
        <time>2000-01-01T03:36:23.000Z</time>
      </trkpt>
      <trkpt lat="45.14357" lon="2.72614">
        <ele>1516</ele>
        <time>2000-01-01T03:36:33.000Z</time>
      </trkpt>
      <trkpt lat="45.1435" lon="2.72591">
        <ele>1522.2</ele>
        <time>2000-01-01T03:36:43.000Z</time>
      </trkpt>
      <trkpt lat="45.1434" lon="2.72568">
        <ele>1518</ele>
        <time>2000-01-01T03:36:53.000Z</time>
      </trkpt>
      <trkpt lat="45.14333" lon="2.72556">
        <ele>1524</ele>
        <time>2000-01-01T03:37:03.000Z</time>
      </trkpt>
      <trkpt lat="45.14326" lon="2.72548">
        <ele>1523</ele>
        <time>2000-01-01T03:37:13.000Z</time>
      </trkpt>
      <trkpt lat="45.14316" lon="2.72538">
        <ele>1522.6</ele>
        <time>2000-01-01T03:37:23.000Z</time>
      </trkpt>
      <trkpt lat="45.14294" lon="2.72512">
        <ele>1523</ele>
        <time>2000-01-01T03:37:33.000Z</time>
      </trkpt>
      <trkpt lat="45.14285" lon="2.72507">
        <ele>1516.2</ele>
        <time>2000-01-01T03:37:43.000Z</time>
      </trkpt>
      <trkpt lat="45.1427" lon="2.72503">
        <ele>1519</ele>
        <time>2000-01-01T03:37:53.000Z</time>
      </trkpt>
      <trkpt lat="45.14252" lon="2.72498">
        <ele>1510.8</ele>
        <time>2000-01-01T03:38:03.000Z</time>
      </trkpt>
      <trkpt lat="45.14238" lon="2.72494">
        <ele>1516</ele>
        <time>2000-01-01T03:38:13.000Z</time>
      </trkpt>
      <trkpt lat="45.14224" lon="2.72489">
        <ele>1507.7</ele>
        <time>2000-01-01T03:38:23.000Z</time>
      </trkpt>
      <trkpt lat="45.14206" lon="2.72483">
        <ele>1511</ele>
        <time>2000-01-01T03:38:33.000Z</time>
      </trkpt>
      <trkpt lat="45.14201" lon="2.7248">
        <ele>1506.4</ele>
        <time>2000-01-01T03:38:43.000Z</time>
      </trkpt>
      <trkpt lat="45.14203" lon="2.72475">
        <ele>1505.7</ele>
        <time>2000-01-01T03:38:53.000Z</time>
      </trkpt>
      <trkpt lat="45.14203" lon="2.72475">
        <ele>1505.7</ele>
        <time>2000-01-01T03:39:03.000Z</time>
      </trkpt>
      <trkpt lat="45.14201" lon="2.7248">
        <ele>1506.4</ele>
        <time>2000-01-01T03:39:13.000Z</time>
      </trkpt>
      <trkpt lat="45.14196" lon="2.72477">
        <ele>1506.3</ele>
        <time>2000-01-01T03:39:23.000Z</time>
      </trkpt>
      <trkpt lat="45.14191" lon="2.72471">
        <ele>1506</ele>
        <time>2000-01-01T03:39:33.000Z</time>
      </trkpt>
      <trkpt lat="45.14186" lon="2.72462">
        <ele>1504.2</ele>
        <time>2000-01-01T03:39:43.000Z</time>
      </trkpt>
      <trkpt lat="45.14177" lon="2.72443">
        <ele>1503</ele>
        <time>2000-01-01T03:39:53.000Z</time>
      </trkpt>
      <trkpt lat="45.14167" lon="2.72425">
        <ele>1501.8</ele>
        <time>2000-01-01T03:40:03.000Z</time>
      </trkpt>
      <trkpt lat="45.14157" lon="2.72409">
        <ele>1502</ele>
        <time>2000-01-01T03:40:13.000Z</time>
      </trkpt>
      <trkpt lat="45.14148" lon="2.72394">
        <ele>1497.8</ele>
        <time>2000-01-01T03:40:23.000Z</time>
      </trkpt>
      <trkpt lat="45.14147" lon="2.72388">
        <ele>1497.4</ele>
        <time>2000-01-01T03:40:33.000Z</time>
      </trkpt>
      <trkpt lat="45.14146" lon="2.72382">
        <ele>1499</ele>
        <time>2000-01-01T03:40:43.000Z</time>
      </trkpt>
      <trkpt lat="45.14135" lon="2.72364">
        <ele>1494.9</ele>
        <time>2000-01-01T03:40:53.000Z</time>
      </trkpt>
      <trkpt lat="45.14127" lon="2.72347">
        <ele>1496</ele>
        <time>2000-01-01T03:41:03.000Z</time>
      </trkpt>
      <trkpt lat="45.14117" lon="2.72316">
        <ele>1489</ele>
        <time>2000-01-01T03:41:13.000Z</time>
      </trkpt>
      <trkpt lat="45.14112" lon="2.7231">
        <ele>1488.1</ele>
        <time>2000-01-01T03:41:23.000Z</time>
      </trkpt>
      <trkpt lat="45.14108" lon="2.72305">
        <ele>1487.3</ele>
        <time>2000-01-01T03:41:33.000Z</time>
      </trkpt>
      <trkpt lat="45.14107" lon="2.723">
        <ele>1486.4</ele>
        <time>2000-01-01T03:41:43.000Z</time>
      </trkpt>
      <trkpt lat="45.14106" lon="2.72291">
        <ele>1485</ele>
        <time>2000-01-01T03:41:53.000Z</time>
      </trkpt>
      <trkpt lat="45.14104" lon="2.7227">
        <ele>1482.6</ele>
        <time>2000-01-01T03:42:03.000Z</time>
      </trkpt>
      <trkpt lat="45.14099" lon="2.72236">
        <ele>1482</ele>
        <time>2000-01-01T03:42:13.000Z</time>
      </trkpt>
      <trkpt lat="45.14095" lon="2.72203">
        <ele>1479</ele>
        <time>2000-01-01T03:42:23.000Z</time>
      </trkpt>
      <trkpt lat="45.14089" lon="2.72166">
        <ele>1478</ele>
        <time>2000-01-01T03:42:33.000Z</time>
      </trkpt>
      <trkpt lat="45.14083" lon="2.72145">
        <ele>1475.4</ele>
        <time>2000-01-01T03:42:43.000Z</time>
      </trkpt>
      <trkpt lat="45.14068" lon="2.72111">
        <ele>1476</ele>
        <time>2000-01-01T03:42:53.000Z</time>
      </trkpt>
      <trkpt lat="45.14055" lon="2.72078">
        <ele>1469</ele>
        <time>2000-01-01T03:43:03.000Z</time>
      </trkpt>
      <trkpt lat="45.14048" lon="2.72059">
        <ele>1468.7</ele>
        <time>2000-01-01T03:43:13.000Z</time>
      </trkpt>
      <trkpt lat="45.14046" lon="2.72046">
        <ele>1467</ele>
        <time>2000-01-01T03:43:23.000Z</time>
      </trkpt>
      <trkpt lat="45.14037" lon="2.72013">
        <ele>1467</ele>
        <time>2000-01-01T03:43:33.000Z</time>
      </trkpt>
      <trkpt lat="45.1403" lon="2.71982">
        <ele>1467</ele>
        <time>2000-01-01T03:43:43.000Z</time>
      </trkpt>
      <trkpt lat="45.14026" lon="2.71968">
        <ele>1468.5</ele>
        <time>2000-01-01T03:43:53.000Z</time>
      </trkpt>
      <trkpt lat="45.14026" lon="2.71963">
        <ele>1469.2</ele>
        <time>2000-01-01T03:44:03.000Z</time>
      </trkpt>
      <trkpt lat="45.14024" lon="2.71929">
        <ele>1468</ele>
        <time>2000-01-01T03:44:13.000Z</time>
      </trkpt>
      <trkpt lat="45.14022" lon="2.71898">
        <ele>1470</ele>
        <time>2000-01-01T03:44:23.000Z</time>
      </trkpt>
      <trkpt lat="45.14017" lon="2.7188">
        <ele>1476.1</ele>
        <time>2000-01-01T03:44:33.000Z</time>
      </trkpt>
      <trkpt lat="45.14002" lon="2.7184">
        <ele>1471</ele>
        <time>2000-01-01T03:44:43.000Z</time>
      </trkpt>
      <trkpt lat="45.1399" lon="2.71809">
        <ele>1477</ele>
        <time>2000-01-01T03:44:53.000Z</time>
      </trkpt>
      <trkpt lat="45.13979" lon="2.71782">
        <ele>1479</ele>
        <time>2000-01-01T03:45:03.000Z</time>
      </trkpt>
      <trkpt lat="45.1397" lon="2.71754">
        <ele>1479</ele>
        <time>2000-01-01T03:45:13.000Z</time>
      </trkpt>
      <trkpt lat="45.13966" lon="2.71736">
        <ele>1480</ele>
        <time>2000-01-01T03:45:23.000Z</time>
      </trkpt>
      <trkpt lat="45.13964" lon="2.71723">
        <ele>1479</ele>
        <time>2000-01-01T03:45:33.000Z</time>
      </trkpt>
      <trkpt lat="45.13957" lon="2.71704">
        <ele>1482</ele>
        <time>2000-01-01T03:45:43.000Z</time>
      </trkpt>
      <trkpt lat="45.13952" lon="2.71691">
        <ele>1479</ele>
        <time>2000-01-01T03:45:53.000Z</time>
      </trkpt>
      <trkpt lat="45.13942" lon="2.71675">
        <ele>1485.7</ele>
        <time>2000-01-01T03:46:03.000Z</time>
      </trkpt>
      <trkpt lat="45.13933" lon="2.71663">
        <ele>1479</ele>
        <time>2000-01-01T03:46:13.000Z</time>
      </trkpt>
      <trkpt lat="45.13921" lon="2.71652">
        <ele>1487.3</ele>
        <time>2000-01-01T03:46:23.000Z</time>
      </trkpt>
      <trkpt lat="45.13905" lon="2.71643">
        <ele>1481</ele>
        <time>2000-01-01T03:46:33.000Z</time>
      </trkpt>
      <trkpt lat="45.13885" lon="2.71636">
        <ele>1482</ele>
        <time>2000-01-01T03:46:43.000Z</time>
      </trkpt>
      <trkpt lat="45.13869" lon="2.71625">
        <ele>1487</ele>
        <time>2000-01-01T03:46:53.000Z</time>
      </trkpt>
      <trkpt lat="45.1385" lon="2.7161">
        <ele>1482</ele>
        <time>2000-01-01T03:47:03.000Z</time>
      </trkpt>
      <trkpt lat="45.13835" lon="2.71597">
        <ele>1485.8</ele>
        <time>2000-01-01T03:47:13.000Z</time>
      </trkpt>
      <trkpt lat="45.13822" lon="2.71585">
        <ele>1480</ele>
        <time>2000-01-01T03:47:23.000Z</time>
      </trkpt>
      <trkpt lat="45.13796" lon="2.71581">
        <ele>1480</ele>
        <time>2000-01-01T03:47:33.000Z</time>
      </trkpt>
      <trkpt lat="45.1379" lon="2.71579">
        <ele>1480.5</ele>
        <time>2000-01-01T03:47:43.000Z</time>
      </trkpt>
      <trkpt lat="45.13782" lon="2.71575">
        <ele>1478.9</ele>
        <time>2000-01-01T03:47:53.000Z</time>
      </trkpt>
      <trkpt lat="45.13777" lon="2.71569">
        <ele>1479</ele>
        <time>2000-01-01T03:48:03.000Z</time>
      </trkpt>
      <trkpt lat="45.13771" lon="2.71561">
        <ele>1476.3</ele>
        <time>2000-01-01T03:48:13.000Z</time>
      </trkpt>
      <trkpt lat="45.13768" lon="2.71553">
        <ele>1475.5</ele>
        <time>2000-01-01T03:48:23.000Z</time>
      </trkpt>
      <trkpt lat="45.13754" lon="2.71537">
        <ele>1477</ele>
        <time>2000-01-01T03:48:33.000Z</time>
      </trkpt>
      <trkpt lat="45.13746" lon="2.71524">
        <ele>1474.3</ele>
        <time>2000-01-01T03:48:43.000Z</time>
      </trkpt>
      <trkpt lat="45.13735" lon="2.71505">
        <ele>1473</ele>
        <time>2000-01-01T03:48:53.000Z</time>
      </trkpt>
      <trkpt lat="45.1373" lon="2.71495">
        <ele>1470.8</ele>
        <time>2000-01-01T03:49:03.000Z</time>
      </trkpt>
      <trkpt lat="45.13726" lon="2.7149">
        <ele>1471.2</ele>
        <time>2000-01-01T03:49:13.000Z</time>
      </trkpt>
      <trkpt lat="45.13718" lon="2.71481">
        <ele>1469</ele>
        <time>2000-01-01T03:49:23.000Z</time>
      </trkpt>
      <trkpt lat="45.13715" lon="2.71474">
        <ele>1470.5</ele>
        <time>2000-01-01T03:49:33.000Z</time>
      </trkpt>
      <trkpt lat="45.13709" lon="2.71459">
        <ele>1468.7</ele>
        <time>2000-01-01T03:49:43.000Z</time>
      </trkpt>
      <trkpt lat="45.13693" lon="2.71444">
        <ele>1466</ele>
        <time>2000-01-01T03:49:53.000Z</time>
      </trkpt>
      <trkpt lat="45.1368" lon="2.71433">
        <ele>1468.9</ele>
        <time>2000-01-01T03:50:03.000Z</time>
      </trkpt>
      <trkpt lat="45.13675" lon="2.71428">
        <ele>1464</ele>
        <time>2000-01-01T03:50:13.000Z</time>
      </trkpt>
      <trkpt lat="45.13672" lon="2.71422">
        <ele>1467.8</ele>
        <time>2000-01-01T03:50:23.000Z</time>
      </trkpt>
      <trkpt lat="45.13669" lon="2.71417">
        <ele>1467.6</ele>
        <time>2000-01-01T03:50:33.000Z</time>
      </trkpt>
      <trkpt lat="45.13664" lon="2.71415">
        <ele>1466.4</ele>
        <time>2000-01-01T03:50:43.000Z</time>
      </trkpt>
      <trkpt lat="45.13657" lon="2.71414">
        <ele>1463</ele>
        <time>2000-01-01T03:50:53.000Z</time>
      </trkpt>
      <trkpt lat="45.1365" lon="2.71409">
        <ele>1462.9</ele>
        <time>2000-01-01T03:51:03.000Z</time>
      </trkpt>
      <trkpt lat="45.13642" lon="2.71396">
        <ele>1461</ele>
        <time>2000-01-01T03:51:13.000Z</time>
      </trkpt>
      <trkpt lat="45.13635" lon="2.71377">
        <ele>1460</ele>
        <time>2000-01-01T03:51:23.000Z</time>
      </trkpt>
      <trkpt lat="45.13629" lon="2.71359">
        <ele>1457</ele>
        <time>2000-01-01T03:51:33.000Z</time>
      </trkpt>
      <trkpt lat="45.13624" lon="2.71339">
        <ele>1457.4</ele>
        <time>2000-01-01T03:51:43.000Z</time>
      </trkpt>
      <trkpt lat="45.13619" lon="2.71321">
        <ele>1456</ele>
        <time>2000-01-01T03:51:53.000Z</time>
      </trkpt>
      <trkpt lat="45.13616" lon="2.71291">
        <ele>1454</ele>
        <time>2000-01-01T03:52:03.000Z</time>
      </trkpt>
      <trkpt lat="45.13616" lon="2.71284">
        <ele>1456.2</ele>
        <time>2000-01-01T03:52:13.000Z</time>
      </trkpt>
      <trkpt lat="45.13616" lon="2.71275">
        <ele>1455.8</ele>
        <time>2000-01-01T03:52:23.000Z</time>
      </trkpt>
      <trkpt lat="45.13616" lon="2.71267">
        <ele>1455.1</ele>
        <time>2000-01-01T03:52:33.000Z</time>
      </trkpt>
      <trkpt lat="45.13618" lon="2.71263">
        <ele>1453</ele>
        <time>2000-01-01T03:52:43.000Z</time>
      </trkpt>
      <trkpt lat="45.13604" lon="2.71245">
        <ele>1452.3</ele>
        <time>2000-01-01T03:52:53.000Z</time>
      </trkpt>
      <trkpt lat="45.13597" lon="2.71237">
        <ele>1450</ele>
        <time>2000-01-01T03:53:03.000Z</time>
      </trkpt>
      <trkpt lat="45.13581" lon="2.71214">
        <ele>1446</ele>
        <time>2000-01-01T03:53:13.000Z</time>
      </trkpt>
      <trkpt lat="45.13574" lon="2.71212">
        <ele>1445.3</ele>
        <time>2000-01-01T03:53:23.000Z</time>
      </trkpt>
      <trkpt lat="45.13567" lon="2.71204">
        <ele>1443.4</ele>
        <time>2000-01-01T03:53:33.000Z</time>
      </trkpt>
      <trkpt lat="45.13561" lon="2.71191">
        <ele>1443</ele>
        <time>2000-01-01T03:53:43.000Z</time>
      </trkpt>
      <trkpt lat="45.1356" lon="2.71182">
        <ele>1440</ele>
        <time>2000-01-01T03:53:53.000Z</time>
      </trkpt>
      <trkpt lat="45.13558" lon="2.71171">
        <ele>1437.6</ele>
        <time>2000-01-01T03:54:03.000Z</time>
      </trkpt>
      <trkpt lat="45.13554" lon="2.71164">
        <ele>1440</ele>
        <time>2000-01-01T03:54:13.000Z</time>
      </trkpt>
      <trkpt lat="45.13548" lon="2.71155">
        <ele>1433</ele>
        <time>2000-01-01T03:54:23.000Z</time>
      </trkpt>
      <trkpt lat="45.13544" lon="2.71145">
        <ele>1430.1</ele>
        <time>2000-01-01T03:54:33.000Z</time>
      </trkpt>
      <trkpt lat="45.13538" lon="2.71134">
        <ele>1437</ele>
        <time>2000-01-01T03:54:43.000Z</time>
      </trkpt>
      <trkpt lat="45.13533" lon="2.71119">
        <ele>1426.5</ele>
        <time>2000-01-01T03:54:53.000Z</time>
      </trkpt>
      <trkpt lat="45.13524" lon="2.71115">
        <ele>1433</ele>
        <time>2000-01-01T03:55:03.000Z</time>
      </trkpt>
      <trkpt lat="45.13517" lon="2.71113">
        <ele>1423.4</ele>
        <time>2000-01-01T03:55:13.000Z</time>
      </trkpt>
      <trkpt lat="45.13515" lon="2.71111">
        <ele>1422.7</ele>
        <time>2000-01-01T03:55:23.000Z</time>
      </trkpt>
      <trkpt lat="45.13515" lon="2.71108">
        <ele>1422.8</ele>
        <time>2000-01-01T03:55:33.000Z</time>
      </trkpt>
      <trkpt lat="45.13512" lon="2.71088">
        <ele>1430</ele>
        <time>2000-01-01T03:55:43.000Z</time>
      </trkpt>
      <trkpt lat="45.13511" lon="2.71076">
        <ele>1422</ele>
        <time>2000-01-01T03:55:53.000Z</time>
      </trkpt>
      <trkpt lat="45.13509" lon="2.71068">
        <ele>1421.2</ele>
        <time>2000-01-01T03:56:03.000Z</time>
      </trkpt>
      <trkpt lat="45.13506" lon="2.71062">
        <ele>1424</ele>
        <time>2000-01-01T03:56:13.000Z</time>
      </trkpt>
      <trkpt lat="45.13501" lon="2.71059">
        <ele>1419.3</ele>
        <time>2000-01-01T03:56:23.000Z</time>
      </trkpt>
      <trkpt lat="45.13493" lon="2.71057">
        <ele>1416.5</ele>
        <time>2000-01-01T03:56:33.000Z</time>
      </trkpt>
      <trkpt lat="45.13483" lon="2.71055">
        <ele>1421</ele>
        <time>2000-01-01T03:56:43.000Z</time>
      </trkpt>
      <trkpt lat="45.1348" lon="2.71051">
        <ele>1412</ele>
        <time>2000-01-01T03:56:53.000Z</time>
      </trkpt>
      <trkpt lat="45.13473" lon="2.71036">
        <ele>1410</ele>
        <time>2000-01-01T03:57:03.000Z</time>
      </trkpt>
      <trkpt lat="45.13467" lon="2.71019">
        <ele>1412</ele>
        <time>2000-01-01T03:57:13.000Z</time>
      </trkpt>
      <trkpt lat="45.13464" lon="2.71007">
        <ele>1407</ele>
        <time>2000-01-01T03:57:23.000Z</time>
      </trkpt>
      <trkpt lat="45.13462" lon="2.70995">
        <ele>1406.8</ele>
        <time>2000-01-01T03:57:33.000Z</time>
      </trkpt>
      <trkpt lat="45.13461" lon="2.70983">
        <ele>1408</ele>
        <time>2000-01-01T03:57:43.000Z</time>
      </trkpt>
      <trkpt lat="45.13459" lon="2.70973">
        <ele>1406.3</ele>
        <time>2000-01-01T03:57:53.000Z</time>
      </trkpt>
      <trkpt lat="45.13456" lon="2.70967">
        <ele>1405.2</ele>
        <time>2000-01-01T03:58:03.000Z</time>
      </trkpt>
      <trkpt lat="45.13437" lon="2.70938">
        <ele>1407</ele>
        <time>2000-01-01T03:58:13.000Z</time>
      </trkpt>
      <trkpt lat="45.13424" lon="2.70924">
        <ele>1396.2</ele>
        <time>2000-01-01T03:58:23.000Z</time>
      </trkpt>
      <trkpt lat="45.13413" lon="2.70912">
        <ele>1399</ele>
        <time>2000-01-01T03:58:33.000Z</time>
      </trkpt>
      <trkpt lat="45.13402" lon="2.70889">
        <ele>1391</ele>
        <time>2000-01-01T03:58:43.000Z</time>
      </trkpt>
      <trkpt lat="45.1339" lon="2.70864">
        <ele>1388</ele>
        <time>2000-01-01T03:58:53.000Z</time>
      </trkpt>
      <trkpt lat="45.13384" lon="2.70847">
        <ele>1388.6</ele>
        <time>2000-01-01T03:59:03.000Z</time>
      </trkpt>
      <trkpt lat="45.13371" lon="2.70826">
        <ele>1387</ele>
        <time>2000-01-01T03:59:13.000Z</time>
      </trkpt>
      <trkpt lat="45.13361" lon="2.70815">
        <ele>1382.3</ele>
        <time>2000-01-01T03:59:23.000Z</time>
      </trkpt>
      <trkpt lat="45.13354" lon="2.70808">
        <ele>1381</ele>
        <time>2000-01-01T03:59:33.000Z</time>
      </trkpt>
      <trkpt lat="45.13345" lon="2.70798">
        <ele>1376.7</ele>
        <time>2000-01-01T03:59:43.000Z</time>
      </trkpt>
      <trkpt lat="45.13336" lon="2.70784">
        <ele>1378</ele>
        <time>2000-01-01T03:59:53.000Z</time>
      </trkpt>
      <trkpt lat="45.13319" lon="2.70759">
        <ele>1373</ele>
        <time>2000-01-01T04:00:03.000Z</time>
      </trkpt>
      <trkpt lat="45.13313" lon="2.70746">
        <ele>1368.3</ele>
        <time>2000-01-01T04:00:13.000Z</time>
      </trkpt>
      <trkpt lat="45.13309" lon="2.70729">
        <ele>1367</ele>
        <time>2000-01-01T04:00:23.000Z</time>
      </trkpt>
      <trkpt lat="45.13302" lon="2.70707">
        <ele>1364</ele>
        <time>2000-01-01T04:00:33.000Z</time>
      </trkpt>
      <trkpt lat="45.13299" lon="2.70697">
        <ele>1366</ele>
        <time>2000-01-01T04:00:43.000Z</time>
      </trkpt>
      <trkpt lat="45.13291" lon="2.70676">
        <ele>1360.1</ele>
        <time>2000-01-01T04:00:53.000Z</time>
      </trkpt>
      <trkpt lat="45.13287" lon="2.70668">
        <ele>1363</ele>
        <time>2000-01-01T04:01:03.000Z</time>
      </trkpt>
      <trkpt lat="45.13282" lon="2.70673">
        <ele>1358.8</ele>
        <time>2000-01-01T04:01:13.000Z</time>
      </trkpt>
      <trkpt lat="45.13271" lon="2.70635">
        <ele>1358</ele>
        <time>2000-01-01T04:01:23.000Z</time>
      </trkpt>
      <trkpt lat="45.13271" lon="2.70635">
        <ele>1354</ele>
        <time>2000-01-01T04:01:33.000Z</time>
      </trkpt>
      <trkpt lat="45.13272" lon="2.70635">
        <ele>1354.2</ele>
        <time>2000-01-01T04:01:43.000Z</time>
      </trkpt>
      <trkpt lat="45.13271" lon="2.7063">
        <ele>1353.6</ele>
        <time>2000-01-01T04:01:53.000Z</time>
      </trkpt>
      <trkpt lat="45.13252" lon="2.70606">
        <ele>1351</ele>
        <time>2000-01-01T04:02:03.000Z</time>
      </trkpt>
      <trkpt lat="45.13231" lon="2.7057">
        <ele>1346</ele>
        <time>2000-01-01T04:02:13.000Z</time>
      </trkpt>
      <trkpt lat="45.13211" lon="2.70538">
        <ele>1344</ele>
        <time>2000-01-01T04:02:23.000Z</time>
      </trkpt>
      <trkpt lat="45.13211" lon="2.70538">
        <ele>1343.4</ele>
        <time>2000-01-01T04:02:33.000Z</time>
      </trkpt>
      <trkpt lat="45.13196" lon="2.70509">
        <ele>1342</ele>
        <time>2000-01-01T04:02:43.000Z</time>
      </trkpt>
      <trkpt lat="45.13184" lon="2.70486">
        <ele>1338</ele>
        <time>2000-01-01T04:02:53.000Z</time>
      </trkpt>
      <trkpt lat="45.13172" lon="2.70461">
        <ele>1336</ele>
        <time>2000-01-01T04:03:03.000Z</time>
      </trkpt>
      <trkpt lat="45.13156" lon="2.70426">
        <ele>1334</ele>
        <time>2000-01-01T04:03:13.000Z</time>
      </trkpt>
      <trkpt lat="45.13143" lon="2.70401">
        <ele>1328</ele>
        <time>2000-01-01T04:03:23.000Z</time>
      </trkpt>
      <trkpt lat="45.13135" lon="2.70388">
        <ele>1331.8</ele>
        <time>2000-01-01T04:03:33.000Z</time>
      </trkpt>
      <trkpt lat="45.13122" lon="2.70374">
        <ele>1325</ele>
        <time>2000-01-01T04:03:43.000Z</time>
      </trkpt>
      <trkpt lat="45.13106" lon="2.70357">
        <ele>1325</ele>
        <time>2000-01-01T04:03:53.000Z</time>
      </trkpt>
      <trkpt lat="45.1309" lon="2.70343">
        <ele>1333.2</ele>
        <time>2000-01-01T04:04:03.000Z</time>
      </trkpt>
      <trkpt lat="45.13073" lon="2.70326">
        <ele>1325</ele>
        <time>2000-01-01T04:04:13.000Z</time>
      </trkpt>
      <trkpt lat="45.13065" lon="2.70315">
        <ele>1331.9</ele>
        <time>2000-01-01T04:04:23.000Z</time>
      </trkpt>
      <trkpt lat="45.13062" lon="2.70306">
        <ele>1331.7</ele>
        <time>2000-01-01T04:04:33.000Z</time>
      </trkpt>
      <trkpt lat="45.13058" lon="2.7029">
        <ele>1326</ele>
        <time>2000-01-01T04:04:43.000Z</time>
      </trkpt>
      <trkpt lat="45.13052" lon="2.70274">
        <ele>1331.1</ele>
        <time>2000-01-01T04:04:53.000Z</time>
      </trkpt>
      <trkpt lat="45.13045" lon="2.70265">
        <ele>1327</ele>
        <time>2000-01-01T04:05:03.000Z</time>
      </trkpt>
      <trkpt lat="45.13047" lon="2.70246">
        <ele>1331.4</ele>
        <time>2000-01-01T04:05:13.000Z</time>
      </trkpt>
      <trkpt lat="45.13047" lon="2.70246">
        <ele>1331.4</ele>
        <time>2000-01-01T04:05:23.000Z</time>
      </trkpt>
      <trkpt lat="45.13048" lon="2.70239">
        <ele>1330</ele>
        <time>2000-01-01T04:05:33.000Z</time>
      </trkpt>
    </trkseg>
  </trk>
</gpx>